Time,TemperatureF,DewpointF,PressureIn,WindDirection,WindDirectionDegrees,WindSpeedMPH,WindSpeedGustMPH,Humidity,HourlyPrecipIn,Conditions,Clouds,dailyrainin,SolarRadiationWatts/m^2,SoftwareType,DateUTC
2013-01-21 00:00:00,27.0,10.4,29.99,NNW,334,0.0,4.0,49,0.00,,---,0.00,0.00,VWS V14.01,2013-01-21 05:00:00,
2013-01-21 00:03:00,27.0,10.9,29.99,NNW,347,1.0,2.0,50,0.00,,---,0.00,0.00,VWS V14.01,2013-01-21 05:03:00,
2013-01-21 00:05:00,27.0,11.3,30.00,West,268,0.0,2.0,51,0.00,,---,0.00,0.00,VWS V14.01,2013-01-21 05:05:00,
2013-01-21 00:08:00,26.9,9.9,29.99,SW,222,1.0,2.0,48,0.00,,---,0.00,0.00,VWS V14.01,2013-01-21 05:08:00,
2013-01-21 00:10:00,26.9,9.9,30.00,NNW,332,1.0,2.0,48,0.00,,---,0.00,0.00,VWS V14.01,2013-01-21 05:10:00,
2013-01-21 00:13:00,26.8,10.2,30.00,West,269,2.0,4.0,49,0.00,,---,0.00,0.00,VWS V14.01,2013-01-21 05:13:00,
2013-01-21 00:15:00,26.8,9.8,30.00,NW,323,0.0,4.0,48,0.00,,---,0.00,0.00,VWS V14.01,2013-01-21 05:15:00,
2013-01-21 00:18:00,26.7,9.7,30.00,North,350,3.0,4.0,48,0.00,,---,0.00,0.00,VWS V14.01,2013-01-21 05:18:00,
2013-01-21 00:20:00,26.7,10.6,30.00,NNW,334,2.0,4.0,50,0.00,,---,0.00,0.00,VWS V14.01,2013-01-21 05:20:00,
2013-01-21 00:23:00,26.7,10.1,30.00,NNW,336,0.0,4.0,49,0.00,,---,0.00,0.00,VWS V14.01,2013-01-21 05:23:00,
2013-01-21 00:25:00,26.6,9.6,30.00,NW,315,1.0,4.0,48,0.00,,---,0.00,0.00,VWS V14.01,2013-01-21 05:25:00,
2013-01-21 00:28:00,26.6,9.6,30.00,SW,231,0.0,4.0,48,0.00,,---,0.00,0.00,VWS V14.01,2013-01-21 05:28:00,
2013-01-21 00:32:00,26.5,9.5,30.00,SW,228,2.0,2.0,48,0.00,,---,0.00,0.00,VWS V14.01,2013-01-21 05:32:00,
2013-01-21 00:33:00,26.5,9.0,30.00,WSW,240,1.0,4.0,47,0.00,,---,0.00,0.00,VWS V14.01,2013-01-21 05:33:00,
2013-01-21 00:37:00,26.5,9.5,30.00,NNW,346,2.0,7.0,48,0.00,,---,0.00,0.00,VWS V14.01,2013-01-21 05:37:00,
2013-01-21 00:38:00,26.5,10.4,30.00,NNW,343,1.0,7.0,50,0.00,,---,0.00,0.00,VWS V14.01,2013-01-21 05:38:00,
2013-01-21 00:39:00,26.5,10.4,30.00,SW,224,2.0,7.0,50,0.00,,---,0.00,0.00,VWS V14.01,2013-01-21 05:39:00,
2013-01-21 00:42:00,26.5,10.8,30.00,SW,225,0.0,0.0,51,0.00,,---,0.00,0.00,VWS V14.01,2013-01-21 05:42:00,
2013-01-21 00:43:00,26.4,10.7,30.00,SSE,161,0.0,2.0,51,0.00,,---,0.00,0.00,VWS V14.01,2013-01-21 05:43:00,
2013-01-21 00:44:00,26.4,10.3,30.00,SW,221,0.0,4.0,50,0.00,,---,0.00,0.00,VWS V14.01,2013-01-21 05:44:00,
2013-01-21 00:47:00,26.4,10.3,30.00,North,355,1.0,4.0,50,0.00,,---,0.00,0.00,VWS V14.01,2013-01-21 05:47:00,
2013-01-21 00:48:00,26.4,9.8,30.00,NW,313,0.0,4.0,49,0.00,,---,0.00,0.00,VWS V14.01,2013-01-21 05:48:00,
2013-01-21 00:49:00,26.3,9.3,30.00,WNW,292,0.0,4.0,48,0.00,,---,0.00,0.00,VWS V14.01,2013-01-21 05:49:00,
2013-01-21 00:52:00,26.3,9.3,30.00,NNW,333,0.0,2.0,48,0.00,,---,0.00,0.00,VWS V14.01,2013-01-21 05:52:00,
2013-01-21 00:53:00,26.3,10.2,30.00,NNW,333,0.0,2.0,50,0.00,,---,0.00,0.00,VWS V14.01,2013-01-21 05:53:00,
2013-01-21 00:54:00,26.3,10.2,30.00,NNW,333,0.0,2.0,50,0.00,,---,0.00,0.00,VWS V14.01,2013-01-21 05:54:00,
2013-01-21 00:57:00,26.3,9.8,30.00,SSW,198,3.0,5.0,49,0.00,,---,0.00,0.00,VWS V14.01,2013-01-21 05:57:00,
2013-01-21 00:58:00,26.2,9.2,30.00,SW,232,4.0,5.0,48,0.00,,---,0.00,0.00,VWS V14.01,2013-01-21 05:58:00,
2013-01-21 00:59:00,26.3,8.8,30.00,SSW,194,0.0,5.0,47,0.00,,---,0.00,0.00,VWS V14.01,2013-01-21 05:59:00,
2013-01-21 01:02:00,26.2,9.2,30.00,North,355,0.0,2.0,48,0.00,,---,0.00,0.00,VWS V14.01,2013-01-21 06:02:00,
2013-01-21 01:03:00,26.2,8.7,30.00,West,279,0.0,2.0,47,0.00,,---,0.00,0.00,VWS V14.01,2013-01-21 06:03:00,
2013-01-21 01:04:00,26.2,8.3,30.00,NNW,339,0.0,2.0,46,0.00,,---,0.00,0.00,VWS V14.01,2013-01-21 06:04:00,
2013-01-21 01:05:00,26.2,8.7,30.00,NNW,339,0.0,2.0,47,0.00,,---,0.00,0.00,VWS V14.01,2013-01-21 06:05:00,
2013-01-21 01:08:00,26.2,8.7,30.00,NNW,346,2.0,2.0,47,0.00,,---,0.00,0.00,VWS V14.01,2013-01-21 06:08:00,
2013-01-21 01:09:00,26.2,9.7,30.01,North,350,2.0,4.0,49,0.00,,---,0.00,0.00,VWS V14.01,2013-01-21 06:09:00,
2013-01-21 01:10:00,26.2,9.7,30.01,North,355,1.0,4.0,49,0.00,,---,0.00,0.00,VWS V14.01,2013-01-21 06:10:00,
2013-01-21 01:13:00,26.1,9.1,30.01,SW,232,0.0,2.0,48,0.00,,---,0.00,0.00,VWS V14.01,2013-01-21 06:13:00,
2013-01-21 01:14:00,26.2,10.1,30.01,SW,232,0.0,2.0,50,0.00,,---,0.00,0.00,VWS V14.01,2013-01-21 06:14:00,
2013-01-21 01:15:00,26.1,10.5,30.01,SW,232,0.0,2.0,51,0.00,,---,0.00,0.00,VWS V14.01,2013-01-21 06:15:00,
2013-01-21 01:18:00,26.1,9.1,30.01,West,264,1.0,3.0,48,0.00,,---,0.00,0.00,VWS V14.01,2013-01-21 06:18:00,
2013-01-21 01:19:00,26.1,9.6,30.01,West,264,0.0,3.0,49,0.00,,---,0.00,0.00,VWS V14.01,2013-01-21 06:19:00,
2013-01-21 01:20:00,26.1,9.6,30.01,West,259,0.0,3.0,49,0.00,,---,0.00,0.00,VWS V14.01,2013-01-21 06:20:00,
2013-01-21 01:23:00,26.1,9.6,30.01,NNE,15,1.0,3.0,49,0.00,,---,0.00,0.00,VWS V14.01,2013-01-21 06:23:00,
2013-01-21 01:24:00,26.0,9.0,30.01,SW,234,2.0,3.0,48,0.00,,---,0.00,0.00,VWS V14.01,2013-01-21 06:24:00,
2013-01-21 01:25:00,26.0,9.5,30.01,WSW,248,0.0,3.0,49,0.00,,---,0.00,0.00,VWS V14.01,2013-01-21 06:25:00,
2013-01-21 01:28:00,26.0,9.9,30.01,WNW,302,0.0,5.0,50,0.00,,---,0.00,0.00,VWS V14.01,2013-01-21 06:28:00,
2013-01-21 01:29:00,26.0,9.9,30.01,NNW,342,0.0,5.0,50,0.00,,---,0.00,0.00,VWS V14.01,2013-01-21 06:29:00,
2013-01-21 01:30:00,26.0,9.9,30.01,NNW,342,0.0,5.0,50,0.00,,---,0.00,0.00,VWS V14.01,2013-01-21 06:30:00,
2013-01-21 01:33:00,26.0,9.9,30.01,NNE,28,0.0,2.0,50,0.00,,---,0.00,0.00,VWS V14.01,2013-01-21 06:33:00,
2013-01-21 01:34:00,26.0,9.9,30.01,NNE,28,0.0,2.0,50,0.00,,---,0.00,0.00,VWS V14.01,2013-01-21 06:34:00,
2013-01-21 01:35:00,26.0,9.5,30.01,NNE,28,0.0,2.0,49,0.00,,---,0.00,0.00,VWS V14.01,2013-01-21 06:35:00,
2013-01-21 01:38:00,25.9,9.8,30.02,WSW,249,1.0,2.0,50,0.00,,---,0.00,0.00,VWS V14.01,2013-01-21 06:38:00,
2013-01-21 01:39:00,25.9,9.8,30.02,SW,227,0.0,3.0,50,0.00,,---,0.00,0.00,VWS V14.01,2013-01-21 06:39:00,
2013-01-21 01:40:00,25.9,9.8,30.01,WNW,296,0.0,3.0,50,0.00,,---,0.00,0.00,VWS V14.01,2013-01-21 06:40:00,
2013-01-21 01:43:00,25.9,10.3,30.01,SSE,164,0.0,3.0,51,0.00,,---,0.00,0.00,VWS V14.01,2013-01-21 06:43:00,
2013-01-21 01:44:00,25.8,9.3,30.01,SSE,164,0.0,3.0,49,0.00,,---,0.00,0.00,VWS V14.01,2013-01-21 06:44:00,
2013-01-21 01:45:00,25.8,9.3,30.01,ESE,120,1.0,3.0,49,0.00,,---,0.00,0.00,VWS V14.01,2013-01-21 06:45:00,
2013-01-21 01:48:00,25.8,8.8,30.02,SW,227,5.0,5.0,48,0.00,,---,0.00,0.00,VWS V14.01,2013-01-21 06:48:00,
2013-01-21 01:49:00,25.8,9.7,30.02,NW,315,0.0,5.0,50,0.00,,---,0.00,0.00,VWS V14.01,2013-01-21 06:49:00,
2013-01-21 01:50:00,25.8,10.2,30.02,NW,315,0.0,5.0,51,0.00,,---,0.00,0.00,VWS V14.01,2013-01-21 06:50:00,
2013-01-21 01:53:00,25.7,9.6,30.02,West,276,0.0,4.0,50,0.00,,---,0.00,0.00,VWS V14.01,2013-01-21 06:53:00,
2013-01-21 01:54:00,25.7,9.2,30.02,NNW,336,1.0,6.0,49,0.00,,---,0.00,0.00,VWS V14.01,2013-01-21 06:54:00,
2013-01-21 01:55:00,25.7,9.2,30.02,NNW,336,0.0,6.0,49,0.00,,---,0.00,0.00,VWS V14.01,2013-01-21 06:55:00,
2013-01-21 01:58:00,25.7,10.1,30.02,WSW,250,0.0,6.0,51,0.00,,---,0.00,0.00,VWS V14.01,2013-01-21 06:58:00,
2013-01-21 01:59:00,25.7,10.1,30.02,NNW,338,2.0,6.0,51,0.00,,---,0.00,0.00,VWS V14.01,2013-01-21 06:59:00,
2013-01-21 02:00:00,25.7,10.1,30.02,NNW,347,1.0,6.0,51,0.00,,---,0.00,0.00,VWS V14.01,2013-01-21 07:00:00,
2013-01-21 02:01:00,25.7,10.1,30.02,WNW,286,1.0,6.0,51,0.00,,---,0.00,0.00,VWS V14.01,2013-01-21 07:01:00,
2013-01-21 02:03:00,25.7,9.2,30.02,West,275,0.0,3.0,49,0.00,,---,0.00,0.00,VWS V14.01,2013-01-21 07:03:00,
2013-01-21 02:04:00,25.7,9.2,30.02,West,275,1.0,3.0,49,0.00,,---,0.00,0.00,VWS V14.01,2013-01-21 07:04:00,
2013-01-21 02:05:00,25.6,9.1,30.02,West,275,0.0,3.0,49,0.00,,---,0.00,0.00,VWS V14.01,2013-01-21 07:05:00,
2013-01-21 02:07:00,25.6,9.1,30.03,NNW,342,0.0,3.0,49,0.00,,---,0.00,0.00,VWS V14.01,2013-01-21 07:07:00,
2013-01-21 02:09:00,25.6,9.1,30.03,WNW,295,1.0,3.0,49,0.00,,---,0.00,0.00,VWS V14.01,2013-01-21 07:09:00,
2013-01-21 02:10:00,25.6,9.6,30.03,NW,308,0.0,3.0,50,0.00,,---,0.00,0.00,VWS V14.01,2013-01-21 07:10:00,
2013-01-21 02:13:00,25.6,9.1,30.03,West,273,0.0,2.0,49,0.00,,---,0.00,0.00,VWS V14.01,2013-01-21 07:13:00,
2013-01-21 02:14:00,25.6,8.6,30.03,NNW,333,0.0,2.0,48,0.00,,---,0.00,0.00,VWS V14.01,2013-01-21 07:14:00,
2013-01-21 02:15:00,25.6,9.1,30.03,NNW,336,0.0,2.0,49,0.00,,---,0.00,0.00,VWS V14.01,2013-01-21 07:15:00,
2013-01-21 02:18:00,25.6,8.6,30.03,NNW,336,0.0,2.0,48,0.00,,---,0.00,0.00,VWS V14.01,2013-01-21 07:18:00,
2013-01-21 02:19:00,25.5,9.5,30.03,NNW,336,0.0,2.0,50,0.00,,---,0.00,0.00,VWS V14.01,2013-01-21 07:19:00,
2013-01-21 02:20:00,25.6,9.6,30.03,NNW,336,0.0,2.0,50,0.00,,---,0.00,0.00,VWS V14.01,2013-01-21 07:20:00,
2013-01-21 02:23:00,25.5,9.5,30.03,North,355,1.0,2.0,50,0.00,,---,0.00,0.00,VWS V14.01,2013-01-21 07:23:00,
2013-01-21 02:24:00,25.5,8.6,30.03,NNW,345,1.0,4.0,48,0.00,,---,0.00,0.00,VWS V14.01,2013-01-21 07:24:00,
2013-01-21 02:25:00,25.5,8.6,30.03,NNW,345,0.0,4.0,48,0.00,,---,0.00,0.00,VWS V14.01,2013-01-21 07:25:00,
2013-01-21 02:28:00,25.4,8.0,30.03,WSW,258,0.0,4.0,47,0.00,,---,0.00,0.00,VWS V14.01,2013-01-21 07:28:00,
2013-01-21 02:30:00,25.4,8.5,30.03,WNW,283,2.0,4.0,48,0.00,,---,0.00,0.00,VWS V14.01,2013-01-21 07:30:00,
2013-01-21 02:31:00,25.4,8.9,30.03,NNW,344,0.0,4.0,49,0.00,,---,0.00,0.00,VWS V14.01,2013-01-21 07:31:00,
2013-01-21 02:33:00,25.4,8.0,30.03,NNW,344,0.0,1.0,47,0.00,,---,0.00,0.00,VWS V14.01,2013-01-21 07:33:00,
2013-01-21 02:35:00,25.4,8.9,30.03,NNE,33,1.0,3.0,49,0.00,,---,0.00,0.00,VWS V14.01,2013-01-21 07:35:00,
2013-01-21 02:36:00,25.4,8.9,30.03,SW,236,1.0,3.0,49,0.00,,---,0.00,0.00,VWS V14.01,2013-01-21 07:36:00,
2013-01-21 02:38:00,25.4,8.0,30.04,NW,326,0.0,3.0,47,0.00,,---,0.00,0.00,VWS V14.01,2013-01-21 07:38:00,
2013-01-21 02:40:00,25.3,8.4,30.04,NNE,22,0.0,3.0,48,0.00,,---,0.00,0.00,VWS V14.01,2013-01-21 07:40:00,
2013-01-21 02:41:00,25.3,7.9,30.04,North,355,1.0,3.0,47,0.00,,---,0.00,0.00,VWS V14.01,2013-01-21 07:41:00,
2013-01-21 02:43:00,25.3,8.4,30.04,SW,219,0.0,1.0,48,0.00,,---,0.00,0.00,VWS V14.01,2013-01-21 07:43:00,
2013-01-21 02:45:00,25.3,8.4,30.04,NW,321,0.0,2.0,48,0.00,,---,0.00,0.00,VWS V14.01,2013-01-21 07:45:00,
2013-01-21 02:46:00,25.3,8.8,30.04,NW,321,0.0,2.0,49,0.00,,---,0.00,0.00,VWS V14.01,2013-01-21 07:46:00,
2013-01-21 02:48:00,25.2,7.8,30.04,WSW,242,0.0,2.0,47,0.00,,---,0.00,0.00,VWS V14.01,2013-01-21 07:48:00,
2013-01-21 02:50:00,25.2,8.3,30.04,WNW,284,0.0,2.0,48,0.00,,---,0.00,0.00,VWS V14.01,2013-01-21 07:50:00,
2013-01-21 02:52:00,25.2,8.7,30.04,SW,222,0.0,1.0,49,0.00,,---,0.00,0.00,VWS V14.01,2013-01-21 07:52:00,
2013-01-21 02:53:00,25.2,7.8,30.04,North,355,2.0,2.0,47,0.00,,---,0.00,0.00,VWS V14.01,2013-01-21 07:53:00,
2013-01-21 02:55:00,25.2,7.8,30.04,NNW,338,0.0,2.0,47,0.00,,---,0.00,0.00,VWS V14.01,2013-01-21 07:55:00,
2013-01-21 02:56:00,25.2,8.3,30.04,NNW,338,0.0,2.0,48,0.00,,---,0.00,0.00,VWS V14.01,2013-01-21 07:56:00,
2013-01-21 02:57:00,25.1,7.7,30.04,NNW,338,0.0,2.0,47,0.00,,---,0.00,0.00,VWS V14.01,2013-01-21 07:57:00,
2013-01-21 02:58:00,25.1,8.2,30.04,NNW,338,0.0,2.0,48,0.00,,---,0.00,0.00,VWS V14.01,2013-01-21 07:58:00,
2013-01-21 03:00:00,25.1,8.2,30.04,North,9,0.0,2.0,48,0.00,,---,0.00,0.00,VWS V14.01,2013-01-21 08:00:00,
2013-01-21 03:01:00,25.1,8.2,30.04,North,9,0.0,2.0,48,0.00,,---,0.00,0.00,VWS V14.01,2013-01-21 08:01:00,
2013-01-21 03:02:00,25.1,8.2,30.04,North,5,0.0,0.0,48,0.00,,---,0.00,0.00,VWS V14.01,2013-01-21 08:02:00,
2013-01-21 03:03:00,25.1,9.1,30.04,North,5,1.0,1.0,50,0.00,,---,0.00,0.00,VWS V14.01,2013-01-21 08:03:00,
2013-01-21 03:05:00,25.0,8.6,30.04,North,5,0.0,1.0,49,0.00,,---,0.00,0.00,VWS V14.01,2013-01-21 08:05:00,
2013-01-21 03:06:00,25.0,8.1,30.04,North,5,0.0,1.0,48,0.00,,---,0.00,0.00,VWS V14.01,2013-01-21 08:06:00,
2013-01-21 03:07:00,25.0,8.1,30.04,WSW,246,0.0,1.0,48,0.00,,---,0.00,0.00,VWS V14.01,2013-01-21 08:07:00,
2013-01-21 03:08:00,25.0,8.6,30.04,WSW,247,0.0,1.0,49,0.00,,---,0.00,0.00,VWS V14.01,2013-01-21 08:08:00,
2013-01-21 03:10:00,25.0,8.1,30.04,NW,316,0.0,1.0,48,0.00,,---,0.00,0.00,VWS V14.01,2013-01-21 08:10:00,
2013-01-21 03:11:00,25.0,8.1,30.04,NW,316,0.0,1.0,48,0.00,,---,0.00,0.00,VWS V14.01,2013-01-21 08:11:00,
2013-01-21 03:13:00,24.9,8.0,30.04,NW,316,0.0,1.0,48,0.00,,---,0.00,0.00,VWS V14.01,2013-01-21 08:13:00,
2013-01-21 03:15:00,24.9,8.5,30.04,NW,316,0.0,1.0,49,0.00,,---,0.00,0.00,VWS V14.01,2013-01-21 08:15:00,
2013-01-21 03:16:00,24.9,8.5,30.04,NW,316,0.0,1.0,49,0.00,,---,0.00,0.00,VWS V14.01,2013-01-21 08:16:00,
2013-01-21 03:19:00,24.9,9.4,30.04,NW,316,0.0,1.0,51,0.00,,---,0.00,0.00,VWS V14.01,2013-01-21 08:19:00,
2013-01-21 03:20:00,24.9,9.4,30.04,NW,316,0.0,1.0,51,0.00,,---,0.00,0.00,VWS V14.01,2013-01-21 08:20:00,
2013-01-21 03:21:00,24.9,8.9,30.04,NW,316,0.0,0.0,50,0.00,,---,0.00,0.00,VWS V14.01,2013-01-21 08:21:00,
2013-01-21 03:24:00,24.8,7.9,30.04,NW,316,0.0,0.0,48,0.00,,---,0.00,0.00,VWS V14.01,2013-01-21 08:24:00,
2013-01-21 03:26:00,24.8,8.8,30.04,NW,314,0.0,1.0,50,0.00,,---,0.00,0.00,VWS V14.01,2013-01-21 08:26:00,
2013-01-21 03:27:00,24.8,8.8,30.04,SW,226,0.0,2.0,50,0.00,,---,0.00,0.00,VWS V14.01,2013-01-21 08:27:00,
2013-01-21 03:29:00,24.7,9.2,30.04,SW,232,0.0,2.0,51,0.00,,---,0.00,0.00,VWS V14.01,2013-01-21 08:29:00,
2013-01-21 03:31:00,24.7,9.6,30.04,SW,232,0.0,2.0,52,0.00,,---,0.00,0.00,VWS V14.01,2013-01-21 08:31:00,
2013-01-21 03:32:00,24.7,9.2,30.04,North,351,2.0,2.0,51,0.00,,---,0.00,0.00,VWS V14.01,2013-01-21 08:32:00,
2013-01-21 03:34:00,24.7,8.7,30.04,NW,321,0.0,2.0,50,0.00,,---,0.00,0.00,VWS V14.01,2013-01-21 08:34:00,
2013-01-21 03:36:00,24.6,8.6,30.04,NNE,19,0.0,2.0,50,0.00,,---,0.00,0.00,VWS V14.01,2013-01-21 08:36:00,
2013-01-21 03:37:00,24.6,7.7,30.04,NNE,19,0.0,2.0,48,0.00,,---,0.00,0.00,VWS V14.01,2013-01-21 08:37:00,
2013-01-21 03:39:00,24.6,8.6,30.04,NNE,19,0.0,2.0,50,0.00,,---,0.00,0.00,VWS V14.01,2013-01-21 08:39:00,
2013-01-21 03:41:00,24.5,8.5,30.04,NW,309,1.0,2.0,50,0.00,,---,0.00,0.00,VWS V14.01,2013-01-21 08:41:00,
2013-01-21 03:42:00,24.5,9.0,30.04,West,265,0.0,0.0,51,0.00,,---,0.00,0.00,VWS V14.01,2013-01-21 08:42:00,
2013-01-21 03:44:00,24.5,8.5,30.04,West,265,0.0,0.0,50,0.00,,---,0.00,0.00,VWS V14.01,2013-01-21 08:44:00,
2013-01-21 03:47:00,24.5,8.5,30.04,West,265,0.0,0.0,50,0.00,,---,0.00,0.00,VWS V14.01,2013-01-21 08:47:00,
2013-01-21 03:48:00,24.5,8.5,30.04,West,265,0.0,0.0,50,0.00,,---,0.00,0.00,VWS V14.01,2013-01-21 08:48:00,
2013-01-21 03:49:00,24.5,9.0,30.04,West,265,0.0,0.0,51,0.00,,---,0.00,0.00,VWS V14.01,2013-01-21 08:49:00,
2013-01-21 03:52:00,24.4,8.9,30.05,West,265,0.0,0.0,51,0.00,,---,0.00,0.00,VWS V14.01,2013-01-21 08:52:00,
2013-01-21 03:53:00,24.4,9.3,30.05,West,265,0.0,0.0,52,0.00,,---,0.00,0.00,VWS V14.01,2013-01-21 08:53:00,
2013-01-21 03:54:00,24.4,8.9,30.05,West,265,0.0,0.0,51,0.00,,---,0.00,0.00,VWS V14.01,2013-01-21 08:54:00,
2013-01-21 03:57:00,24.4,9.3,30.05,West,265,0.0,0.0,52,0.00,,---,0.00,0.00,VWS V14.01,2013-01-21 08:57:00,
2013-01-21 03:58:00,24.4,9.3,30.05,West,265,0.0,0.0,52,0.00,,---,0.00,0.00,VWS V14.01,2013-01-21 08:58:00,
2013-01-21 03:59:00,24.4,9.7,30.05,West,265,0.0,0.0,53,0.00,,---,0.00,0.00,VWS V14.01,2013-01-21 08:59:00,
2013-01-21 04:00:00,24.4,9.3,30.05,West,265,0.0,0.0,52,0.00,,---,0.00,0.00,VWS V14.01,2013-01-21 09:00:00,
2013-01-21 04:02:00,24.4,8.9,30.05,West,265,0.0,0.0,51,0.00,,---,0.00,0.00,VWS V14.01,2013-01-21 09:02:00,
2013-01-21 04:03:00,24.3,8.8,30.05,West,265,0.0,0.0,51,0.00,,---,0.00,0.00,VWS V14.01,2013-01-21 09:03:00,
2013-01-21 04:04:00,24.3,9.2,30.05,West,265,0.0,0.0,52,0.00,,---,0.00,0.00,VWS V14.01,2013-01-21 09:04:00,
2013-01-21 04:05:00,24.3,8.8,30.05,West,265,0.0,0.0,51,0.00,,---,0.00,0.00,VWS V14.01,2013-01-21 09:05:00,
2013-01-21 04:07:00,24.3,10.1,30.05,West,265,0.0,1.0,54,0.00,,---,0.00,0.00,VWS V14.01,2013-01-21 09:07:00,
2013-01-21 04:08:00,24.3,10.1,30.05,West,265,0.0,1.0,54,0.00,,---,0.00,0.00,VWS V14.01,2013-01-21 09:08:00,
2013-01-21 04:09:00,24.3,10.1,30.05,West,265,0.0,1.0,54,0.00,,---,0.00,0.00,VWS V14.01,2013-01-21 09:09:00,
2013-01-21 04:10:00,24.3,9.6,30.05,West,265,0.0,1.0,53,0.00,,---,0.00,0.00,VWS V14.01,2013-01-21 09:10:00,
2013-01-21 04:12:00,24.2,9.6,30.05,West,265,0.0,0.0,53,0.00,,---,0.00,0.00,VWS V14.01,2013-01-21 09:12:00,
2013-01-21 04:13:00,24.2,9.6,30.05,West,265,0.0,0.0,53,0.00,,---,0.00,0.00,VWS V14.01,2013-01-21 09:13:00,
2013-01-21 04:14:00,24.2,9.6,30.05,West,265,0.0,0.0,53,0.00,,---,0.00,0.00,VWS V14.01,2013-01-21 09:14:00,
2013-01-21 04:15:00,24.2,8.7,30.05,NNW,348,0.0,1.0,51,0.00,,---,0.00,0.00,VWS V14.01,2013-01-21 09:15:00,
2013-01-21 04:17:00,24.2,8.7,30.05,NNW,348,0.0,1.0,51,0.00,,---,0.00,0.00,VWS V14.01,2013-01-21 09:17:00,
2013-01-21 04:18:00,24.1,8.6,30.05,NNW,348,0.0,1.0,51,0.00,,---,0.00,0.00,VWS V14.01,2013-01-21 09:18:00,
2013-01-21 04:19:00,24.1,9.0,30.05,NNW,348,0.0,1.0,52,0.00,,---,0.00,0.00,VWS V14.01,2013-01-21 09:19:00,
2013-01-21 04:20:00,24.1,9.0,30.05,NNW,348,0.0,1.0,52,0.00,,---,0.00,0.00,VWS V14.01,2013-01-21 09:20:00,
2013-01-21 04:22:00,24.0,9.4,30.05,NNW,348,0.0,0.0,53,0.00,,---,0.00,0.00,VWS V14.01,2013-01-21 09:22:00,
2013-01-21 04:23:00,24.1,9.5,30.05,NNW,348,0.0,0.0,53,0.00,,---,0.00,0.00,VWS V14.01,2013-01-21 09:23:00,
2013-01-21 04:24:00,24.0,9.8,30.05,NNW,348,0.0,0.0,54,0.00,,---,0.00,0.00,VWS V14.01,2013-01-21 09:24:00,
2013-01-21 04:25:00,24.0,9.8,30.05,NNW,347,0.0,0.0,54,0.00,,---,0.00,0.00,VWS V14.01,2013-01-21 09:25:00,
2013-01-21 04:28:00,24.0,10.2,30.05,NNW,347,0.0,0.0,55,0.00,,---,0.00,0.00,VWS V14.01,2013-01-21 09:28:00,
2013-01-21 04:29:00,24.0,10.2,30.05,NNW,347,0.0,0.0,55,0.00,,---,0.00,0.00,VWS V14.01,2013-01-21 09:29:00,
2013-01-21 04:30:00,24.0,10.2,30.05,NNW,347,0.0,0.0,55,0.00,,---,0.00,0.00,VWS V14.01,2013-01-21 09:30:00,
2013-01-21 04:33:00,24.0,9.8,30.05,NNW,347,0.0,0.0,54,0.00,,---,0.00,0.00,VWS V14.01,2013-01-21 09:33:00,
2013-01-21 04:34:00,23.9,9.7,30.05,NNW,347,0.0,0.0,54,0.00,,---,0.00,0.00,VWS V14.01,2013-01-21 09:34:00,
2013-01-21 04:35:00,23.9,9.7,30.05,NNW,347,0.0,0.0,54,0.00,,---,0.00,0.00,VWS V14.01,2013-01-21 09:35:00,
2013-01-21 04:38:00,23.9,9.7,30.05,NNW,347,0.0,0.0,54,0.00,,---,0.00,0.00,VWS V14.01,2013-01-21 09:38:00,
2013-01-21 04:39:00,23.9,9.7,30.05,NNW,347,0.0,0.0,54,0.00,,---,0.00,0.00,VWS V14.01,2013-01-21 09:39:00,
2013-01-21 04:40:00,23.8,9.2,30.05,NNW,347,0.0,0.0,53,0.00,,---,0.00,0.00,VWS V14.01,2013-01-21 09:40:00,
2013-01-21 04:43:00,23.8,9.2,30.05,NNW,347,0.0,0.0,53,0.00,,---,0.00,0.00,VWS V14.01,2013-01-21 09:43:00,
2013-01-21 04:44:00,23.8,9.2,30.05,NNW,347,0.0,0.0,53,0.00,,---,0.00,0.00,VWS V14.01,2013-01-21 09:44:00,
2013-01-21 04:45:00,23.8,9.6,30.05,WNW,283,1.0,1.0,54,0.00,,---,0.00,0.00,VWS V14.01,2013-01-21 09:45:00,
2013-01-21 04:48:00,23.7,9.1,30.05,SW,233,0.0,2.0,53,0.00,,---,0.00,0.00,VWS V14.01,2013-01-21 09:48:00,
2013-01-21 04:49:00,23.7,9.1,30.05,SW,233,0.0,2.0,53,0.00,,---,0.00,0.00,VWS V14.01,2013-01-21 09:49:00,
2013-01-21 04:51:00,23.6,9.4,30.05,SW,236,0.0,2.0,54,0.00,,---,0.00,0.00,VWS V14.01,2013-01-21 09:51:00,
2013-01-21 04:53:00,23.6,9.0,30.05,WSW,255,0.0,1.0,53,0.00,,---,0.00,0.00,VWS V14.01,2013-01-21 09:53:00,
2013-01-21 04:54:00,23.6,9.4,30.05,WSW,255,0.0,1.0,54,0.00,,---,0.00,0.00,VWS V14.01,2013-01-21 09:54:00,
2013-01-21 04:56:00,23.6,9.4,30.05,WSW,255,0.0,1.0,54,0.00,,---,0.00,0.00,VWS V14.01,2013-01-21 09:56:00,
2013-01-21 04:58:00,23.6,9.8,30.05,WSW,255,0.0,1.0,55,0.00,,---,0.00,0.00,VWS V14.01,2013-01-21 09:58:00,
2013-01-21 04:59:00,23.6,9.8,30.05,WSW,255,0.0,1.0,55,0.00,,---,0.00,0.00,VWS V14.01,2013-01-21 09:59:00,
2013-01-21 05:00:00,23.6,9.4,30.05,WSW,255,0.0,1.0,54,0.00,,---,0.00,0.00,VWS V14.01,2013-01-21 10:00:00,
2013-01-21 05:01:00,23.6,9.4,30.05,WSW,255,0.0,1.0,54,0.00,,---,0.00,0.00,VWS V14.01,2013-01-21 10:01:00,
2013-01-21 05:04:00,23.5,10.9,30.05,WSW,255,0.0,1.0,58,0.00,,---,0.00,0.00,VWS V14.01,2013-01-21 10:04:00,
2013-01-21 05:05:00,23.6,11.0,30.05,WSW,255,0.0,1.0,58,0.00,,---,0.00,0.00,VWS V14.01,2013-01-21 10:05:00,
2013-01-21 05:06:00,23.5,10.5,30.05,WSW,255,0.0,1.0,57,0.00,,---,0.00,0.00,VWS V14.01,2013-01-21 10:06:00,
2013-01-21 05:09:00,23.5,9.7,30.05,WSW,255,0.0,1.0,55,0.00,,---,0.00,0.00,VWS V14.01,2013-01-21 10:09:00,
2013-01-21 05:10:00,23.5,9.7,30.05,WSW,255,0.0,1.0,55,0.00,,---,0.00,0.00,VWS V14.01,2013-01-21 10:10:00,
2013-01-21 05:12:00,23.5,9.7,30.05,WSW,255,0.0,0.0,55,0.00,,---,0.00,0.00,VWS V14.01,2013-01-21 10:12:00,
2013-01-21 05:14:00,23.4,9.6,30.05,WSW,255,0.0,0.0,55,0.00,,---,0.00,0.00,VWS V14.01,2013-01-21 10:14:00,
2013-01-21 05:15:00,23.4,9.6,30.05,WSW,255,0.0,0.0,55,0.00,,---,0.00,0.00,VWS V14.01,2013-01-21 10:15:00,
2013-01-21 05:17:00,23.4,9.6,30.05,WSW,255,0.0,0.0,55,0.00,,---,0.00,0.00,VWS V14.01,2013-01-21 10:17:00,
2013-01-21 05:19:00,23.4,10.0,30.05,WSW,255,0.0,0.0,56,0.00,,---,0.00,0.00,VWS V14.01,2013-01-21 10:19:00,
2013-01-21 05:20:00,23.4,10.0,30.05,WSW,255,0.0,0.0,56,0.00,,---,0.00,0.00,VWS V14.01,2013-01-21 10:20:00,
2013-01-21 05:22:00,23.4,10.0,30.05,WSW,255,0.0,0.0,56,0.00,,---,0.00,0.00,VWS V14.01,2013-01-21 10:22:00,
2013-01-21 05:24:00,23.3,9.5,30.05,WSW,255,0.0,0.0,55,0.00,,---,0.00,0.00,VWS V14.01,2013-01-21 10:24:00,
2013-01-21 05:25:00,23.3,9.9,30.05,WSW,255,0.0,0.0,56,0.00,,---,0.00,0.00,VWS V14.01,2013-01-21 10:25:00,
2013-01-21 05:27:00,23.3,10.3,30.05,WSW,255,0.0,0.0,57,0.00,,---,0.00,0.00,VWS V14.01,2013-01-21 10:27:00,
2013-01-21 05:29:00,23.2,10.6,30.05,WSW,255,0.0,0.0,58,0.00,,---,0.00,0.00,VWS V14.01,2013-01-21 10:29:00,
2013-01-21 05:30:00,23.2,10.2,30.06,WSW,255,0.0,0.0,57,0.00,,---,0.00,0.00,VWS V14.01,2013-01-21 10:30:00,
2013-01-21 05:32:00,23.1,10.1,30.06,WSW,255,0.0,0.0,57,0.00,,---,0.00,0.00,VWS V14.01,2013-01-21 10:32:00,
2013-01-21 05:34:00,23.1,10.5,30.06,WSW,255,0.0,0.0,58,0.00,,---,0.00,0.00,VWS V14.01,2013-01-21 10:34:00,
2013-01-21 05:35:00,23.1,10.1,30.06,WSW,255,0.0,0.0,57,0.00,,---,0.00,0.00,VWS V14.01,2013-01-21 10:35:00,
2013-01-21 05:36:00,23.1,10.1,30.06,WSW,255,0.0,0.0,57,0.00,,---,0.00,0.00,VWS V14.01,2013-01-21 10:36:00,
2013-01-21 05:38:00,23.1,10.5,30.06,WSW,255,0.0,0.0,58,0.00,,---,0.00,0.00,VWS V14.01,2013-01-21 10:38:00,
2013-01-21 05:39:00,23.0,10.4,30.06,WSW,255,0.0,0.0,58,0.00,,---,0.00,0.00,VWS V14.01,2013-01-21 10:39:00,
2013-01-21 05:40:00,23.0,10.4,30.06,WSW,255,0.0,0.0,58,0.00,,---,0.00,0.00,VWS V14.01,2013-01-21 10:40:00,
2013-01-21 05:41:00,23.0,10.4,30.06,WSW,255,0.0,0.0,58,0.00,,---,0.00,0.00,VWS V14.01,2013-01-21 10:41:00,
2013-01-21 05:43:00,23.0,10.8,30.06,WSW,255,0.0,0.0,59,0.00,,---,0.00,0.00,VWS V14.01,2013-01-21 10:43:00,
2013-01-21 05:44:00,22.9,10.3,30.06,WSW,255,0.0,0.0,58,0.00,,---,0.00,0.00,VWS V14.01,2013-01-21 10:44:00,
2013-01-21 05:46:00,22.9,10.0,30.06,WSW,255,0.0,0.0,57,0.00,,---,0.00,0.00,VWS V14.01,2013-01-21 10:46:00,
2013-01-21 05:48:00,22.8,10.2,30.06,WSW,255,0.0,0.0,58,0.00,,---,0.00,0.00,VWS V14.01,2013-01-21 10:48:00,
2013-01-21 05:49:00,22.8,10.2,30.06,WSW,255,0.0,0.0,58,0.00,,---,0.00,0.00,VWS V14.01,2013-01-21 10:49:00,
2013-01-21 05:51:00,22.8,10.2,30.06,WSW,255,0.0,0.0,58,0.00,,---,0.00,0.00,VWS V14.01,2013-01-21 10:51:00,
2013-01-21 05:53:00,22.7,10.5,30.06,WSW,255,0.0,0.0,59,0.00,,---,0.00,0.00,VWS V14.01,2013-01-21 10:53:00,
2013-01-21 05:54:00,22.7,10.9,30.06,WSW,255,0.0,0.0,60,0.00,,---,0.00,0.00,VWS V14.01,2013-01-21 10:54:00,
2013-01-21 05:56:00,22.7,10.9,30.06,WSW,255,0.0,0.0,60,0.00,,---,0.00,0.00,VWS V14.01,2013-01-21 10:56:00,
2013-01-21 05:58:00,22.6,10.8,30.06,WSW,255,0.0,0.0,60,0.00,,---,0.00,0.00,VWS V14.01,2013-01-21 10:58:00,
2013-01-21 05:59:00,22.5,10.7,30.06,WSW,255,0.0,0.0,60,0.00,,---,0.00,0.00,VWS V14.01,2013-01-21 10:59:00,
2013-01-21 06:01:00,22.5,10.7,30.06,WSW,255,0.0,0.0,60,0.00,,---,0.00,0.00,VWS V14.01,2013-01-21 11:01:00,
2013-01-21 06:03:00,22.4,11.0,30.06,WSW,255,0.0,0.0,61,0.00,,---,0.00,0.00,VWS V14.01,2013-01-21 11:03:00,
2013-01-21 06:04:00,22.4,10.6,30.06,WSW,255,0.0,0.0,60,0.00,,---,0.00,0.00,VWS V14.01,2013-01-21 11:04:00,
2013-01-21 06:07:00,22.3,10.5,30.06,WSW,255,0.0,0.0,60,0.00,,---,0.00,0.00,VWS V14.01,2013-01-21 11:07:00,
2013-01-21 06:08:00,22.2,10.1,30.06,WSW,255,0.0,0.0,59,0.00,,---,0.00,0.00,VWS V14.01,2013-01-21 11:08:00,
2013-01-21 06:09:00,22.2,10.1,30.06,WSW,255,0.0,0.0,59,0.00,,---,0.00,0.00,VWS V14.01,2013-01-21 11:09:00,
2013-01-21 06:12:00,22.0,9.5,30.06,WSW,255,0.0,0.0,58,0.00,,---,0.00,0.00,VWS V14.01,2013-01-21 11:12:00,
2013-01-21 06:13:00,22.0,9.5,30.06,WSW,255,0.0,0.0,58,0.00,,---,0.00,0.00,VWS V14.01,2013-01-21 11:13:00,
2013-01-21 06:14:00,22.0,9.5,30.06,WSW,255,0.0,0.0,58,0.00,,---,0.00,0.00,VWS V14.01,2013-01-21 11:14:00,
2013-01-21 06:17:00,21.9,9.8,30.06,WSW,255,0.0,0.0,59,0.00,,---,0.00,0.00,VWS V14.01,2013-01-21 11:17:00,
2013-01-21 06:18:00,21.9,10.2,30.06,WSW,255,0.0,0.0,60,0.00,,---,0.00,0.00,VWS V14.01,2013-01-21 11:18:00,
2013-01-21 06:19:00,21.9,9.8,30.07,WSW,255,0.0,0.0,59,0.00,,---,0.00,0.00,VWS V14.01,2013-01-21 11:19:00,
2013-01-21 06:23:00,21.8,9.7,30.06,WSW,255,0.0,0.0,59,0.00,,---,0.00,0.00,VWS V14.01,2013-01-21 11:23:00,
2013-01-21 06:24:00,21.8,10.1,30.06,WSW,255,0.0,0.0,60,0.00,,---,0.00,0.00,VWS V14.01,2013-01-21 11:24:00,
2013-01-21 06:28:00,21.8,10.1,30.07,WSW,255,0.0,0.0,60,0.00,,---,0.00,0.00,VWS V14.01,2013-01-21 11:28:00,
2013-01-21 06:29:00,21.7,10.0,30.07,WSW,255,0.0,0.0,60,0.00,,---,0.00,0.00,VWS V14.01,2013-01-21 11:29:00,
2013-01-21 06:33:00,21.7,10.7,30.07,WSW,255,0.0,0.0,62,0.00,,---,0.00,0.00,VWS V14.01,2013-01-21 11:33:00,
2013-01-21 06:34:00,21.7,10.7,30.07,WSW,255,0.0,0.0,62,0.00,,---,0.00,0.00,VWS V14.01,2013-01-21 11:34:00,
2013-01-21 06:38:00,21.6,10.6,30.07,WSW,255,0.0,0.0,62,0.00,,---,0.00,0.00,VWS V14.01,2013-01-21 11:38:00,
2013-01-21 06:39:00,21.6,10.6,30.07,WSW,255,0.0,0.0,62,0.00,,---,0.00,0.00,VWS V14.01,2013-01-21 11:39:00,
2013-01-21 06:40:00,21.5,10.5,30.07,WSW,255,0.0,0.0,62,0.00,,---,0.00,0.00,VWS V14.01,2013-01-21 11:40:00,
2013-01-21 06:43:00,21.5,10.5,30.07,WSW,255,0.0,0.0,62,0.00,,---,0.00,0.00,VWS V14.01,2013-01-21 11:43:00,
2013-01-21 06:44:00,21.5,10.5,30.07,WSW,255,0.0,0.0,62,0.00,,---,0.00,0.00,VWS V14.01,2013-01-21 11:44:00,
2013-01-21 06:45:00,21.5,10.5,30.07,WSW,255,0.0,0.0,62,0.00,,---,0.00,0.00,VWS V14.01,2013-01-21 11:45:00,
2013-01-21 06:48:00,21.4,10.1,30.07,WSW,255,0.0,0.0,61,0.00,,---,0.00,0.00,VWS V14.01,2013-01-21 11:48:00,
2013-01-21 06:49:00,21.4,10.1,30.07,WSW,255,0.0,0.0,61,0.00,,---,0.00,0.00,VWS V14.01,2013-01-21 11:49:00,
2013-01-21 06:50:00,21.4,10.4,30.08,WSW,255,0.0,0.0,62,0.00,,---,0.00,0.00,VWS V14.01,2013-01-21 11:50:00,
2013-01-21 06:54:00,21.3,10.7,30.08,WSW,255,0.0,0.0,63,0.00,,---,0.00,0.00,VWS V14.01,2013-01-21 11:54:00,
2013-01-21 06:55:00,21.3,10.7,30.08,WSW,255,0.0,0.0,63,0.00,,---,0.00,0.00,VWS V14.01,2013-01-21 11:55:00,
2013-01-21 06:59:00,21.2,10.9,30.08,WSW,255,0.0,0.0,64,0.00,,---,0.00,0.00,VWS V14.01,2013-01-21 11:59:00,
2013-01-21 07:00:00,21.2,10.6,30.07,WSW,255,0.0,0.0,63,0.00,,---,0.00,0.00,VWS V14.01,2013-01-21 12:00:00,
2013-01-21 07:04:00,21.1,10.1,30.07,WSW,255,0.0,0.0,62,0.00,,---,0.00,0.00,VWS V14.01,2013-01-21 12:04:00,
2013-01-21 07:05:00,21.1,10.1,30.07,WSW,255,0.0,0.0,62,0.00,,---,0.00,0.00,VWS V14.01,2013-01-21 12:05:00,
2013-01-21 07:09:00,21.1,10.5,30.07,WSW,255,0.0,0.0,63,0.00,,---,0.00,0.00,VWS V14.01,2013-01-21 12:09:00,
2013-01-21 07:10:00,21.1,10.5,30.07,WSW,255,0.0,0.0,63,0.00,,---,0.00,0.00,VWS V14.01,2013-01-21 12:10:00,
2013-01-21 07:14:00,21.1,10.8,30.07,WSW,255,0.0,0.0,64,0.00,,---,0.00,0.00,VWS V14.01,2013-01-21 12:14:00,
2013-01-21 07:15:00,21.0,10.8,30.07,WSW,255,0.0,0.0,64,0.00,,---,0.00,0.00,VWS V14.01,2013-01-21 12:15:00,
2013-01-21 07:19:00,21.0,10.8,30.07,WSW,255,0.0,0.0,64,0.00,,---,0.00,0.00,VWS V14.01,2013-01-21 12:19:00,
2013-01-21 07:20:00,20.9,11.0,30.07,WSW,255,0.0,0.0,65,0.00,,---,0.00,0.00,VWS V14.01,2013-01-21 12:20:00,
2013-01-21 07:24:00,20.9,10.6,30.07,WSW,255,0.0,0.0,64,0.00,,---,0.00,5.00,VWS V14.01,2013-01-21 12:24:00,
2013-01-21 07:25:00,20.9,10.6,30.07,WSW,255,0.0,0.0,64,0.00,,---,0.00,5.00,VWS V14.01,2013-01-21 12:25:00,
2013-01-21 07:29:00,20.9,10.6,30.07,WSW,255,0.0,0.0,64,0.00,,---,0.00,7.00,VWS V14.01,2013-01-21 12:29:00,
2013-01-21 07:30:00,20.9,10.6,30.07,WSW,255,0.0,0.0,64,0.00,,---,0.00,7.00,VWS V14.01,2013-01-21 12:30:00,
2013-01-21 07:34:00,20.8,11.2,30.07,WSW,255,0.0,0.0,66,0.00,,---,0.00,9.00,VWS V14.01,2013-01-21 12:34:00,
2013-01-21 07:35:00,20.8,10.9,30.07,WSW,255,0.0,0.0,65,0.00,,---,0.00,9.00,VWS V14.01,2013-01-21 12:35:00,
2013-01-21 07:40:00,20.8,11.2,30.07,WSW,255,0.0,0.0,66,0.00,,---,0.00,14.00,VWS V14.01,2013-01-21 12:40:00,
2013-01-21 07:45:00,20.8,11.2,30.07,WSW,255,0.0,0.0,66,0.00,,---,0.00,23.00,VWS V14.01,2013-01-21 12:45:00,
2013-01-21 07:50:00,20.8,11.6,30.07,WSW,255,0.0,0.0,67,0.00,,---,0.00,26.00,VWS V14.01,2013-01-21 12:50:00,
2013-01-21 07:55:00,20.9,12.0,30.07,WSW,255,0.0,0.0,68,0.00,,---,0.00,37.00,VWS V14.01,2013-01-21 12:55:00,
2013-01-21 07:56:00,20.9,12.0,30.07,WSW,255,0.0,0.0,68,0.00,,---,0.00,37.00,VWS V14.01,2013-01-21 12:56:00,
2013-01-21 08:00:00,20.9,11.3,30.07,WSW,255,0.0,0.0,66,0.00,,---,0.00,44.00,VWS V14.01,2013-01-21 13:00:00,
2013-01-21 08:01:00,20.9,11.0,30.07,WSW,255,0.0,0.0,65,0.00,,---,0.00,46.00,VWS V14.01,2013-01-21 13:01:00,
2013-01-21 08:05:00,20.9,11.0,30.07,WSW,255,0.0,0.0,65,0.00,,---,0.00,39.00,VWS V14.01,2013-01-21 13:05:00,
2013-01-21 08:06:00,21.0,11.8,30.07,WSW,255,0.0,0.0,67,0.00,,---,0.00,39.00,VWS V14.01,2013-01-21 13:06:00,
2013-01-21 08:10:00,21.1,12.2,30.07,WSW,255,0.0,0.0,68,0.00,,---,0.00,39.00,VWS V14.01,2013-01-21 13:10:00,
2013-01-21 08:11:00,21.2,12.3,30.06,WSW,255,0.0,0.0,68,0.00,,---,0.00,44.00,VWS V14.01,2013-01-21 13:11:00,
2013-01-21 08:15:00,21.3,12.4,30.07,WSW,255,0.0,0.0,68,0.00,,---,0.00,54.00,VWS V14.01,2013-01-21 13:15:00,
2013-01-21 08:16:00,21.3,12.7,30.07,WSW,255,0.0,0.0,69,0.00,,---,0.00,54.00,VWS V14.01,2013-01-21 13:16:00,
2013-01-21 08:20:00,21.5,12.3,30.07,WSW,255,0.0,0.0,67,0.00,,---,0.00,44.00,VWS V14.01,2013-01-21 13:20:00,
2013-01-21 08:21:00,21.5,11.9,30.07,WSW,255,0.0,0.0,66,0.00,,---,0.00,42.00,VWS V14.01,2013-01-21 13:21:00,
2013-01-21 08:25:00,21.7,12.1,30.08,WSW,255,0.0,0.0,66,0.00,,---,0.00,44.00,VWS V14.01,2013-01-21 13:25:00,
2013-01-21 08:26:00,21.7,12.1,30.08,WSW,255,0.0,0.0,66,0.00,,---,0.00,49.00,VWS V14.01,2013-01-21 13:26:00,
2013-01-21 08:30:00,21.8,11.9,30.08,WSW,255,0.0,0.0,65,0.00,,---,0.00,53.00,VWS V14.01,2013-01-21 13:30:00,
2013-01-21 08:31:00,21.9,11.6,30.08,WSW,255,0.0,0.0,64,0.00,,---,0.00,56.00,VWS V14.01,2013-01-21 13:31:00,
2013-01-21 08:35:00,22.1,11.8,30.07,WSW,255,0.0,0.0,64,0.00,,---,0.00,49.00,VWS V14.01,2013-01-21 13:35:00,
2013-01-21 08:36:00,22.1,11.4,30.07,WSW,255,0.0,0.0,63,0.00,,---,0.00,51.00,VWS V14.01,2013-01-21 13:36:00,
2013-01-21 08:40:00,22.3,11.3,30.07,WSW,255,0.0,0.0,62,0.00,,---,0.00,53.00,VWS V14.01,2013-01-21 13:40:00,
2013-01-21 08:41:00,22.4,11.4,30.07,WSW,255,0.0,0.0,62,0.00,,---,0.00,51.00,VWS V14.01,2013-01-21 13:41:00,
2013-01-21 08:42:00,22.4,11.4,30.07,WSW,255,0.0,0.0,62,0.00,,---,0.00,51.00,VWS V14.01,2013-01-21 13:42:00,
2013-01-21 08:45:00,22.5,11.1,30.07,WSW,255,0.0,0.0,61,0.00,,---,0.00,58.00,VWS V14.01,2013-01-21 13:45:00,
2013-01-21 08:46:00,22.6,11.2,30.07,WSW,255,0.0,0.0,61,0.00,,---,0.00,60.00,VWS V14.01,2013-01-21 13:46:00,
2013-01-21 08:47:00,22.6,11.2,30.07,WSW,255,0.0,0.0,61,0.00,,---,0.00,60.00,VWS V14.01,2013-01-21 13:47:00,
2013-01-21 08:51:00,22.8,11.8,30.08,WSW,255,0.0,0.0,62,0.00,,---,0.00,49.00,VWS V14.01,2013-01-21 13:51:00,
2013-01-21 08:52:00,22.9,11.8,30.08,WSW,255,0.0,0.0,62,0.00,,---,0.00,49.00,VWS V14.01,2013-01-21 13:52:00,
2013-01-21 08:56:00,23.0,11.9,30.08,WSW,255,0.0,0.0,62,0.00,,---,0.00,47.00,VWS V14.01,2013-01-21 13:56:00,
2013-01-21 08:57:00,23.0,12.3,30.08,WSW,255,0.0,0.0,63,0.00,,---,0.00,47.00,VWS V14.01,2013-01-21 13:57:00,
2013-01-21 09:01:00,23.2,12.5,30.08,WSW,255,0.0,0.0,63,0.00,,---,0.00,53.00,VWS V14.01,2013-01-21 14:01:00,
2013-01-21 09:02:00,23.3,12.2,30.08,WSW,255,0.0,0.0,62,0.00,,---,0.00,56.00,VWS V14.01,2013-01-21 14:02:00,
2013-01-21 09:06:00,23.4,11.9,30.08,WSW,255,0.0,0.0,61,0.00,,---,0.00,72.00,VWS V14.01,2013-01-21 14:06:00,
2013-01-21 09:07:00,23.5,12.4,30.08,WSW,255,0.0,0.0,62,0.00,,---,0.00,76.00,VWS V14.01,2013-01-21 14:07:00,
2013-01-21 09:11:00,23.7,13.0,30.08,WSW,255,0.0,0.0,63,0.00,,---,0.00,74.00,VWS V14.01,2013-01-21 14:11:00,
2013-01-21 09:12:00,23.8,12.7,30.08,WSW,255,0.0,0.0,62,0.00,,---,0.00,72.00,VWS V14.01,2013-01-21 14:12:00,
2013-01-21 09:16:00,23.9,10.9,30.08,WSW,255,0.0,0.0,57,0.00,,---,0.00,72.00,VWS V14.01,2013-01-21 14:16:00,
2013-01-21 09:17:00,24.0,11.0,30.08,WSW,255,0.0,0.0,57,0.00,,---,0.00,74.00,VWS V14.01,2013-01-21 14:17:00,
2013-01-21 09:21:00,24.1,10.3,30.08,WSW,255,0.0,0.0,55,0.00,,---,0.00,81.00,VWS V14.01,2013-01-21 14:21:00,
2013-01-21 09:22:00,24.2,10.4,30.08,WSW,255,0.0,0.0,55,0.00,,---,0.00,83.00,VWS V14.01,2013-01-21 14:22:00,
2013-01-21 09:26:00,24.3,11.7,30.08,WSW,255,0.0,0.0,58,0.00,,---,0.00,91.00,VWS V14.01,2013-01-21 14:26:00,
2013-01-21 09:27:00,24.4,12.1,30.08,WSW,255,0.0,0.0,59,0.00,,---,0.00,91.00,VWS V14.01,2013-01-21 14:27:00,
2013-01-21 09:28:00,24.4,12.1,30.08,WSW,255,0.0,0.0,59,0.00,,---,0.00,91.00,VWS V14.01,2013-01-21 14:28:00,
2013-01-21 09:31:00,24.6,11.9,30.08,WSW,255,0.0,0.0,58,0.00,,---,0.00,88.00,VWS V14.01,2013-01-21 14:31:00,
2013-01-21 09:33:00,24.7,12.0,30.08,WSW,255,0.0,0.0,58,0.00,,---,0.00,90.00,VWS V14.01,2013-01-21 14:33:00,
2013-01-21 09:36:00,24.8,10.9,30.08,WSW,256,0.0,1.0,55,0.00,,---,0.00,104.00,VWS V14.01,2013-01-21 14:36:00,
2013-01-21 09:37:00,24.8,10.9,30.08,WSW,256,0.0,1.0,55,0.00,,---,0.00,109.00,VWS V14.01,2013-01-21 14:37:00,
2013-01-21 09:38:00,24.8,10.9,30.08,WSW,256,0.0,1.0,55,0.00,,---,0.00,107.00,VWS V14.01,2013-01-21 14:38:00,
2013-01-21 09:41:00,24.9,11.0,30.08,WSW,256,0.0,1.0,55,0.00,,---,0.00,105.00,VWS V14.01,2013-01-21 14:41:00,
2013-01-21 09:42:00,25.0,11.5,30.08,WSW,256,0.0,0.0,56,0.00,,---,0.00,111.00,VWS V14.01,2013-01-21 14:42:00,
2013-01-21 09:43:00,25.1,11.6,30.08,WSW,256,0.0,0.0,56,0.00,,---,0.00,114.00,VWS V14.01,2013-01-21 14:43:00,
2013-01-21 09:46:00,25.1,10.4,30.08,WSW,256,0.0,0.0,53,0.00,,---,0.00,104.00,VWS V14.01,2013-01-21 14:46:00,
2013-01-21 09:47:00,25.1,10.4,30.08,WSW,256,0.0,0.0,53,0.00,,---,0.00,105.00,VWS V14.01,2013-01-21 14:47:00,
2013-01-21 09:48:00,25.0,10.3,30.08,WSW,256,0.0,0.0,53,0.00,,---,0.00,107.00,VWS V14.01,2013-01-21 14:48:00,
2013-01-21 09:51:00,25.2,10.9,30.08,WSW,256,0.0,0.0,54,0.00,,---,0.00,118.00,VWS V14.01,2013-01-21 14:51:00,
2013-01-21 09:52:00,25.2,10.9,30.08,WSW,256,0.0,0.0,54,0.00,,---,0.00,118.00,VWS V14.01,2013-01-21 14:52:00,
2013-01-21 09:53:00,25.2,10.9,30.08,WSW,256,0.0,0.0,54,0.00,,---,0.00,123.00,VWS V14.01,2013-01-21 14:53:00,
2013-01-21 09:56:00,25.1,10.8,30.08,WSW,256,0.0,1.0,54,0.00,,---,0.00,121.00,VWS V14.01,2013-01-21 14:56:00,
2013-01-21 09:57:00,25.2,10.9,30.08,WSW,256,0.0,1.0,54,0.00,,---,0.00,121.00,VWS V14.01,2013-01-21 14:57:00,
2013-01-21 09:58:00,25.2,11.3,30.08,WSW,256,0.0,1.0,55,0.00,,---,0.00,118.00,VWS V14.01,2013-01-21 14:58:00,
2013-01-21 10:02:00,25.2,10.5,30.08,WSW,256,0.0,0.0,53,0.00,,---,0.00,114.00,VWS V14.01,2013-01-21 15:02:00,
2013-01-21 10:03:00,25.2,10.9,30.08,WSW,256,0.0,0.0,54,0.00,,---,0.00,114.00,VWS V14.01,2013-01-21 15:03:00,
2013-01-21 10:07:00,25.2,10.5,30.08,WSW,256,0.0,0.0,53,0.00,,---,0.00,134.00,VWS V14.01,2013-01-21 15:07:00,
2013-01-21 10:08:00,25.3,11.0,30.08,WSW,256,1.0,1.0,54,0.00,,---,0.00,130.00,VWS V14.01,2013-01-21 15:08:00,
2013-01-21 10:12:00,25.3,11.0,30.08,NNE,19,2.0,2.0,54,0.00,,---,0.00,141.00,VWS V14.01,2013-01-21 15:12:00,
2013-01-21 10:13:00,25.3,11.0,30.08,NNE,19,0.0,2.0,54,0.00,,---,0.00,151.00,VWS V14.01,2013-01-21 15:13:00,
2013-01-21 10:17:00,25.8,12.7,30.08,WNW,290,0.0,2.0,57,0.00,,---,0.00,125.00,VWS V14.01,2013-01-21 15:17:00,
2013-01-21 10:18:00,25.8,11.9,30.08,WNW,290,0.0,2.0,55,0.00,,---,0.00,127.00,VWS V14.01,2013-01-21 15:18:00,
2013-01-21 10:22:00,26.0,12.1,30.07,WNW,290,0.0,1.0,55,0.00,,---,0.00,135.00,VWS V14.01,2013-01-21 15:22:00,
2013-01-21 10:23:00,26.0,12.1,30.07,West,272,0.0,1.0,55,0.00,,---,0.00,137.00,VWS V14.01,2013-01-21 15:23:00,
2013-01-21 10:27:00,26.1,13.0,30.07,WSW,246,0.0,2.0,57,0.00,,---,0.00,139.00,VWS V14.01,2013-01-21 15:27:00,
2013-01-21 10:28:00,26.2,12.2,30.07,WSW,246,0.0,2.0,55,0.00,,---,0.00,135.00,VWS V14.01,2013-01-21 15:28:00,
2013-01-21 10:29:00,26.2,12.2,30.07,WSW,246,0.0,2.0,55,0.00,,---,0.00,139.00,VWS V14.01,2013-01-21 15:29:00,
2013-01-21 10:32:00,26.2,11.8,30.07,WSW,246,0.0,0.0,54,0.00,,---,0.00,130.00,VWS V14.01,2013-01-21 15:32:00,
2013-01-21 10:33:00,26.2,11.4,30.07,WSW,246,0.0,0.0,53,0.00,,---,0.00,130.00,VWS V14.01,2013-01-21 15:33:00,
2013-01-21 10:34:00,26.2,12.7,30.07,WSW,246,0.0,0.0,56,0.00,,---,0.00,137.00,VWS V14.01,2013-01-21 15:34:00,
2013-01-21 10:37:00,26.2,11.8,30.07,WSW,246,0.0,0.0,54,0.00,,---,0.00,160.00,VWS V14.01,2013-01-21 15:37:00,
2013-01-21 10:38:00,26.2,11.8,30.07,WSW,246,0.0,0.0,54,0.00,,---,0.00,160.00,VWS V14.01,2013-01-21 15:38:00,
2013-01-21 10:39:00,26.3,12.3,30.06,WSW,246,0.0,0.0,55,0.00,,---,0.00,155.00,VWS V14.01,2013-01-21 15:39:00,
2013-01-21 10:43:00,26.6,12.6,30.06,WSW,246,0.0,0.0,55,0.00,,---,0.00,153.00,VWS V14.01,2013-01-21 15:43:00,
2013-01-21 10:44:00,26.7,12.7,30.06,WSW,246,0.0,0.0,55,0.00,,---,0.00,155.00,VWS V14.01,2013-01-21 15:44:00,
2013-01-21 10:48:00,26.6,12.6,30.06,South,175,0.0,1.0,55,0.00,,---,0.00,153.00,VWS V14.01,2013-01-21 15:48:00,
2013-01-21 10:49:00,26.6,11.8,30.06,South,175,0.0,1.0,53,0.00,,---,0.00,151.00,VWS V14.01,2013-01-21 15:49:00,
2013-01-21 10:53:00,26.4,12.0,30.05,ESE,117,0.0,1.0,54,0.00,,---,0.00,160.00,VWS V14.01,2013-01-21 15:53:00,
2013-01-21 10:54:00,26.5,12.5,30.05,ESE,117,0.0,1.0,55,0.00,,---,0.00,160.00,VWS V14.01,2013-01-21 15:54:00,
2013-01-21 10:55:00,26.5,12.1,30.05,SW,223,1.0,2.0,54,0.00,,---,0.00,160.00,VWS V14.01,2013-01-21 15:55:00,
2013-01-21 10:58:00,26.6,11.8,30.05,SSW,205,0.0,2.0,53,0.00,,---,0.00,162.00,VWS V14.01,2013-01-21 15:58:00,
2013-01-21 10:59:00,26.5,11.3,30.05,SSW,205,0.0,2.0,52,0.00,,---,0.00,158.00,VWS V14.01,2013-01-21 15:59:00,
2013-01-21 11:00:00,26.4,10.7,30.05,SSW,205,0.0,2.0,51,0.00,,---,0.00,155.00,VWS V14.01,2013-01-21 16:00:00,
2013-01-21 11:03:00,26.6,11.8,30.05,South,175,0.0,1.0,53,0.00,,---,0.00,146.00,VWS V14.01,2013-01-21 16:03:00,
2013-01-21 11:04:00,26.7,12.3,30.05,SSW,198,1.0,1.0,54,0.00,,---,0.00,142.00,VWS V14.01,2013-01-21 16:04:00,
2013-01-21 11:05:00,26.8,13.2,30.04,SSW,200,1.0,2.0,56,0.00,,---,0.00,144.00,VWS V14.01,2013-01-21 16:05:00,
2013-01-21 11:08:00,26.7,11.9,30.04,SSW,200,0.0,2.0,53,0.00,,---,0.00,146.00,VWS V14.01,2013-01-21 16:08:00,
2013-01-21 11:09:00,26.7,11.9,30.04,SSW,200,0.0,2.0,53,0.00,,---,0.00,146.00,VWS V14.01,2013-01-21 16:09:00,
2013-01-21 11:10:00,26.7,11.9,30.04,SSW,200,0.0,2.0,53,0.00,,---,0.00,144.00,VWS V14.01,2013-01-21 16:10:00,
2013-01-21 11:13:00,27.1,13.1,30.03,SSW,200,0.0,1.0,55,0.00,,---,0.00,149.00,VWS V14.01,2013-01-21 16:13:00,
2013-01-21 11:14:00,27.2,13.2,30.03,SSW,200,0.0,1.0,55,0.00,,---,0.00,149.00,VWS V14.01,2013-01-21 16:14:00,
2013-01-21 11:15:00,27.2,11.9,30.03,SSW,200,0.0,1.0,52,0.00,,---,0.00,151.00,VWS V14.01,2013-01-21 16:15:00,
2013-01-21 11:18:00,27.1,11.8,30.03,WSW,238,0.0,2.0,52,0.00,,---,0.00,146.00,VWS V14.01,2013-01-21 16:18:00,
2013-01-21 11:19:00,27.1,11.8,30.03,WSW,238,0.0,2.0,52,0.00,,---,0.00,146.00,VWS V14.01,2013-01-21 16:19:00,
2013-01-21 11:20:00,27.1,12.2,30.02,WSW,238,0.0,2.0,53,0.00,,---,0.00,142.00,VWS V14.01,2013-01-21 16:20:00,
2013-01-21 11:24:00,27.1,12.2,30.02,WSW,238,0.0,1.0,53,0.00,,---,0.00,137.00,VWS V14.01,2013-01-21 16:24:00,
2013-01-21 11:25:00,27.1,12.2,30.02,WSW,238,0.0,1.0,53,0.00,,---,0.00,137.00,VWS V14.01,2013-01-21 16:25:00,
2013-01-21 11:29:00,27.1,11.4,30.02,South,179,1.0,2.0,51,0.00,,---,0.00,135.00,VWS V14.01,2013-01-21 16:29:00,
2013-01-21 11:30:00,27.1,11.8,30.02,South,179,0.0,2.0,52,0.00,,---,0.00,132.00,VWS V14.01,2013-01-21 16:30:00,
2013-01-21 11:31:00,27.2,12.8,30.02,South,179,0.0,2.0,54,0.00,,---,0.00,134.00,VWS V14.01,2013-01-21 16:31:00,
2013-01-21 11:34:00,27.4,13.0,30.01,SE,131,0.0,1.0,54,0.00,,---,0.00,135.00,VWS V14.01,2013-01-21 16:34:00,
2013-01-21 11:35:00,27.4,13.0,30.01,SE,131,0.0,1.0,54,0.00,,---,0.00,135.00,VWS V14.01,2013-01-21 16:35:00,
2013-01-21 11:36:00,27.4,12.1,30.02,SE,131,0.0,1.0,52,0.00,,---,0.00,137.00,VWS V14.01,2013-01-21 16:36:00,
2013-01-21 11:39:00,27.5,12.6,30.01,SE,131,0.0,1.0,53,0.00,,---,0.00,139.00,VWS V14.01,2013-01-21 16:39:00,
2013-01-21 11:40:00,27.5,12.2,30.01,SE,140,0.0,1.0,52,0.00,,---,0.00,139.00,VWS V14.01,2013-01-21 16:40:00,
2013-01-21 11:41:00,27.5,12.2,30.01,SE,140,0.0,1.0,52,0.00,,---,0.00,137.00,VWS V14.01,2013-01-21 16:41:00,
2013-01-21 11:44:00,27.5,12.6,30.01,SE,124,1.0,1.0,53,0.00,,---,0.00,135.00,VWS V14.01,2013-01-21 16:44:00,
2013-01-21 11:45:00,27.5,12.6,30.01,ESE,109,1.0,1.0,53,0.00,,---,0.00,130.00,VWS V14.01,2013-01-21 16:45:00,
2013-01-21 11:46:00,27.4,12.1,30.01,SE,125,0.0,1.0,52,0.00,,---,0.00,127.00,VWS V14.01,2013-01-21 16:46:00,
2013-01-21 11:49:00,27.3,12.4,30.01,ESE,123,0.0,1.0,53,0.00,,---,0.00,128.00,VWS V14.01,2013-01-21 16:49:00,
2013-01-21 11:50:00,27.4,12.5,30.00,ESE,123,0.0,1.0,53,0.00,,---,0.00,125.00,VWS V14.01,2013-01-21 16:50:00,
2013-01-21 11:51:00,27.4,13.0,30.01,SE,124,0.0,0.0,54,0.00,,---,0.00,123.00,VWS V14.01,2013-01-21 16:51:00,
2013-01-21 11:54:00,27.6,13.6,30.01,SE,124,0.0,0.0,55,0.00,,---,0.00,125.00,VWS V14.01,2013-01-21 16:54:00,
2013-01-21 11:55:00,27.6,12.7,30.01,SE,124,0.0,0.0,53,0.00,,---,0.00,130.00,VWS V14.01,2013-01-21 16:55:00,
2013-01-21 11:56:00,27.5,12.6,30.01,SE,124,0.0,0.0,53,0.00,,---,0.00,128.00,VWS V14.01,2013-01-21 16:56:00,
2013-01-21 11:59:00,27.6,14.0,30.00,SE,124,0.0,0.0,56,0.00,,---,0.00,123.00,VWS V14.01,2013-01-21 16:59:00,
2013-01-21 12:00:00,27.6,13.1,30.00,SE,124,0.0,1.0,54,0.00,,---,0.00,118.00,VWS V14.01,2013-01-21 17:00:00,
2013-01-21 12:01:00,27.6,13.6,30.00,SE,124,0.0,0.0,55,0.00,,---,0.00,118.00,VWS V14.01,2013-01-21 17:01:00,
2013-01-21 12:04:00,27.7,13.2,30.00,SE,124,0.0,0.0,54,0.00,,---,0.00,116.00,VWS V14.01,2013-01-21 17:04:00,
2013-01-21 12:05:00,27.8,12.9,30.00,SE,124,0.0,0.0,53,0.00,,---,0.00,123.00,VWS V14.01,2013-01-21 17:05:00,
2013-01-21 12:06:00,27.8,12.9,30.00,SE,124,0.0,0.0,53,0.00,,---,0.00,127.00,VWS V14.01,2013-01-21 17:06:00,
2013-01-21 12:09:00,27.7,12.8,30.00,SE,124,0.0,1.0,53,0.00,,---,0.00,144.00,VWS V14.01,2013-01-21 17:09:00,
2013-01-21 12:10:00,27.7,12.8,30.00,SE,129,2.0,2.0,53,0.00,,---,0.00,139.00,VWS V14.01,2013-01-21 17:10:00,
2013-01-21 12:11:00,27.6,12.3,30.00,ESE,123,0.0,2.0,52,0.00,,---,0.00,135.00,VWS V14.01,2013-01-21 17:11:00,
2013-01-21 12:12:00,27.6,13.1,30.00,ESE,123,0.0,0.0,54,0.00,,---,0.00,135.00,VWS V14.01,2013-01-21 17:12:00,
2013-01-21 12:14:00,27.8,13.3,30.00,ESE,123,0.0,0.0,54,0.00,,---,0.00,139.00,VWS V14.01,2013-01-21 17:14:00,
2013-01-21 12:15:00,27.9,13.4,30.00,ESE,123,0.0,1.0,54,0.00,,---,0.00,139.00,VWS V14.01,2013-01-21 17:15:00,
2013-01-21 12:16:00,27.9,13.4,30.00,ESE,123,0.0,1.0,54,0.00,,---,0.00,139.00,VWS V14.01,2013-01-21 17:16:00,
2013-01-21 12:17:00,28.0,14.3,29.99,ESE,123,0.0,1.0,56,0.00,,---,0.00,135.00,VWS V14.01,2013-01-21 17:17:00,
2013-01-21 12:19:00,28.3,14.2,29.99,SE,128,0.0,1.0,55,0.00,,---,0.00,125.00,VWS V14.01,2013-01-21 17:19:00,
2013-01-21 12:20:00,28.4,14.7,29.99,SSE,155,0.0,1.0,56,0.00,,---,0.00,125.00,VWS V14.01,2013-01-21 17:20:00,
2013-01-21 12:21:00,28.3,14.6,29.99,SE,132,0.0,2.0,56,0.00,,---,0.00,121.00,VWS V14.01,2013-01-21 17:21:00,
2013-01-21 12:22:00,28.3,13.8,29.99,SSE,158,1.0,1.0,54,0.00,,---,0.00,123.00,VWS V14.01,2013-01-21 17:22:00,
2013-01-21 12:25:00,28.1,13.6,29.99,SSE,168,0.0,2.0,54,0.00,,---,0.00,121.00,VWS V14.01,2013-01-21 17:25:00,
2013-01-21 12:26:00,28.0,13.5,29.99,SSE,168,0.0,2.0,54,0.00,,---,0.00,114.00,VWS V14.01,2013-01-21 17:26:00,
2013-01-21 12:27:00,28.0,13.9,29.99,SSW,200,0.0,2.0,55,0.00,,---,0.00,109.00,VWS V14.01,2013-01-21 17:27:00,
2013-01-21 12:30:00,27.9,14.2,29.98,SSW,213,0.0,2.0,56,0.00,,---,0.00,97.00,VWS V14.01,2013-01-21 17:30:00,
2013-01-21 12:31:00,27.9,13.8,29.98,SSW,213,0.0,0.0,55,0.00,,---,0.00,90.00,VWS V14.01,2013-01-21 17:31:00,
2013-01-21 12:32:00,27.9,13.8,29.98,South,169,1.0,1.0,55,0.00,,---,0.00,93.00,VWS V14.01,2013-01-21 17:32:00,
2013-01-21 12:35:00,27.8,13.8,29.98,SE,134,0.0,2.0,55,0.00,,---,0.00,100.00,VWS V14.01,2013-01-21 17:35:00,
2013-01-21 12:36:00,27.8,14.2,29.98,SSE,150,0.0,2.0,56,0.00,,---,0.00,98.00,VWS V14.01,2013-01-21 17:36:00,
2013-01-21 12:37:00,27.8,13.8,29.98,SSE,148,0.0,2.0,55,0.00,,---,0.00,97.00,VWS V14.01,2013-01-21 17:37:00,
2013-01-21 12:40:00,27.6,13.6,29.98,ESE,122,0.0,3.0,55,0.00,,---,0.00,95.00,VWS V14.01,2013-01-21 17:40:00,
2013-01-21 12:41:00,27.5,13.5,29.98,SE,129,0.0,3.0,55,0.00,,---,0.00,91.00,VWS V14.01,2013-01-21 17:41:00,
2013-01-21 12:42:00,27.5,13.9,29.98,SSE,153,0.0,1.0,56,0.00,,---,0.00,88.00,VWS V14.01,2013-01-21 17:42:00,
2013-01-21 12:45:00,27.6,14.4,29.97,SSE,147,1.0,1.0,57,0.00,,---,0.00,88.00,VWS V14.01,2013-01-21 17:45:00,
2013-01-21 12:46:00,27.6,14.8,29.97,SE,138,0.0,1.0,58,0.00,,---,0.00,83.00,VWS V14.01,2013-01-21 17:46:00,
2013-01-21 12:47:00,27.6,14.0,29.97,SE,138,0.0,1.0,56,0.00,,---,0.00,81.00,VWS V14.01,2013-01-21 17:47:00,
2013-01-21 12:50:00,27.6,14.4,29.97,SSE,165,0.0,1.0,57,0.00,,---,0.00,83.00,VWS V14.01,2013-01-21 17:50:00,
2013-01-21 12:51:00,27.5,13.5,29.97,SSE,164,1.0,1.0,55,0.00,,---,0.00,84.00,VWS V14.01,2013-01-21 17:51:00,
2013-01-21 12:52:00,27.5,13.5,29.97,SE,138,0.0,1.0,55,0.00,,---,0.00,83.00,VWS V14.01,2013-01-21 17:52:00,
2013-01-21 12:55:00,27.4,14.6,29.97,SSE,164,0.0,1.0,58,0.00,,---,0.00,81.00,VWS V14.01,2013-01-21 17:55:00,
2013-01-21 12:56:00,27.5,14.7,29.97,South,178,0.0,3.0,58,0.00,,---,0.00,79.00,VWS V14.01,2013-01-21 17:56:00,
2013-01-21 12:57:00,27.5,14.7,29.97,South,174,0.0,3.0,58,0.00,,---,0.00,79.00,VWS V14.01,2013-01-21 17:57:00,
2013-01-21 13:00:00,27.4,15.0,29.97,SE,135,0.0,3.0,59,0.00,,---,0.00,74.00,VWS V14.01,2013-01-21 18:00:00,
2013-01-21 13:01:00,27.4,14.2,29.97,SE,135,0.0,0.0,57,0.00,,---,0.00,72.00,VWS V14.01,2013-01-21 18:01:00,
2013-01-21 13:02:00,27.4,14.2,29.97,SE,135,0.0,0.0,57,0.00,,---,0.00,65.00,VWS V14.01,2013-01-21 18:02:00,
2013-01-21 13:05:00,27.5,14.7,29.97,SE,136,0.0,1.0,58,0.00,,---,0.00,63.00,VWS V14.01,2013-01-21 18:05:00,
2013-01-21 13:07:00,27.5,14.7,29.97,SSE,148,0.0,1.0,58,0.00,,---,0.00,62.00,VWS V14.01,2013-01-21 18:07:00,
2013-01-21 13:10:00,27.4,14.2,29.96,South,186,1.0,2.0,57,0.00,,---,0.00,58.00,VWS V14.01,2013-01-21 18:10:00,
2013-01-21 13:12:00,27.4,13.8,29.96,SSE,147,0.0,0.0,56,0.00,,---,0.00,58.00,VWS V14.01,2013-01-21 18:12:00,
2013-01-21 13:15:00,27.3,14.1,29.96,SE,138,0.0,1.0,57,0.00,,---,0.00,54.00,VWS V14.01,2013-01-21 18:15:00,
2013-01-21 13:17:00,27.3,14.1,29.96,SE,138,0.0,1.0,57,0.00,,---,0.00,54.00,VWS V14.01,2013-01-21 18:17:00,
2013-01-21 13:18:00,27.3,13.7,29.96,SE,138,0.0,1.0,56,0.00,,---,0.00,54.00,VWS V14.01,2013-01-21 18:18:00,
2013-01-21 13:20:00,27.2,14.4,29.96,SE,136,0.0,1.0,58,0.00,,---,0.00,53.00,VWS V14.01,2013-01-21 18:20:00,
2013-01-21 13:22:00,27.2,13.6,29.95,SE,144,0.0,1.0,56,0.00,,---,0.00,54.00,VWS V14.01,2013-01-21 18:22:00,
2013-01-21 13:24:00,27.1,13.5,29.95,SE,144,0.0,1.0,56,0.00,,---,0.00,54.00,VWS V14.01,2013-01-21 18:24:00,
2013-01-21 13:26:00,27.1,13.9,29.95,ESE,114,0.0,1.0,57,0.00,,---,0.00,56.00,VWS V14.01,2013-01-21 18:26:00,
2013-01-21 13:27:00,27.1,13.9,29.95,ESE,116,0.0,1.0,57,0.00,,---,0.00,54.00,VWS V14.01,2013-01-21 18:27:00,
2013-01-21 13:29:00,27.2,14.4,29.95,ESE,116,1.0,1.0,58,0.00,,---,0.00,54.00,VWS V14.01,2013-01-21 18:29:00,
2013-01-21 13:31:00,27.2,14.0,29.95,SE,132,0.0,1.0,57,0.00,,---,0.00,53.00,VWS V14.01,2013-01-21 18:31:00,
2013-01-21 13:32:00,27.2,14.4,29.95,SE,132,0.0,0.0,58,0.00,,---,0.00,51.00,VWS V14.01,2013-01-21 18:32:00,
2013-01-21 13:34:00,27.3,14.9,29.95,SSE,150,0.0,1.0,59,0.00,,---,0.00,49.00,VWS V14.01,2013-01-21 18:34:00,
2013-01-21 13:36:00,27.3,14.1,29.95,SSE,155,0.0,1.0,57,0.00,,---,0.00,51.00,VWS V14.01,2013-01-21 18:36:00,
2013-01-21 13:37:00,27.3,14.1,29.95,SSE,155,0.0,1.0,57,0.00,,---,0.00,51.00,VWS V14.01,2013-01-21 18:37:00,
2013-01-21 13:39:00,27.4,15.0,29.95,SSE,161,0.0,1.0,59,0.00,,---,0.00,47.00,VWS V14.01,2013-01-21 18:39:00,
2013-01-21 13:41:00,27.4,14.2,29.95,SSE,161,0.0,1.0,57,0.00,,---,0.00,44.00,VWS V14.01,2013-01-21 18:41:00,
2013-01-21 13:42:00,27.4,14.2,29.95,ESE,115,0.0,1.0,57,0.00,,---,0.00,44.00,VWS V14.01,2013-01-21 18:42:00,
2013-01-21 13:43:00,27.4,14.2,29.95,ESE,115,0.0,1.0,57,0.00,,---,0.00,46.00,VWS V14.01,2013-01-21 18:43:00,
2013-01-21 13:44:00,27.3,13.7,29.95,ESE,115,0.0,1.0,56,0.00,,---,0.00,44.00,VWS V14.01,2013-01-21 18:44:00,
2013-01-21 13:46:00,27.3,14.1,29.95,ESE,115,0.0,1.0,57,0.00,,---,0.00,40.00,VWS V14.01,2013-01-21 18:46:00,
2013-01-21 13:47:00,27.4,14.2,29.95,ESE,115,1.0,1.0,57,0.00,,---,0.00,42.00,VWS V14.01,2013-01-21 18:47:00,
2013-01-21 13:48:00,27.4,14.2,29.95,ESE,116,0.0,1.0,57,0.00,,---,0.00,44.00,VWS V14.01,2013-01-21 18:48:00,
2013-01-21 13:49:00,27.4,14.6,29.95,ESE,117,0.0,1.0,58,0.00,,---,0.00,46.00,VWS V14.01,2013-01-21 18:49:00,
2013-01-21 13:52:00,27.5,15.1,29.95,ESE,117,0.0,0.0,59,0.00,,---,0.00,53.00,VWS V14.01,2013-01-21 18:52:00,
2013-01-21 13:53:00,27.5,14.7,29.95,ESE,117,0.0,0.0,58,0.00,,---,0.00,49.00,VWS V14.01,2013-01-21 18:53:00,
2013-01-21 13:54:00,27.5,15.1,29.94,ESE,117,0.0,0.0,59,0.00,,---,0.00,47.00,VWS V14.01,2013-01-21 18:54:00,
2013-01-21 13:57:00,27.5,14.7,29.94,ESE,123,0.0,0.0,58,0.00,,---,0.00,44.00,VWS V14.01,2013-01-21 18:57:00,
2013-01-21 13:58:00,27.5,14.3,29.94,ESE,123,0.0,0.0,57,0.00,,---,0.00,44.00,VWS V14.01,2013-01-21 18:58:00,
2013-01-21 13:59:00,27.6,15.2,29.94,ESE,123,0.0,1.0,59,0.00,,---,0.00,47.00,VWS V14.01,2013-01-21 18:59:00,
2013-01-21 14:02:00,27.6,15.2,29.94,ESE,123,0.0,0.0,59,0.00,,---,0.00,47.00,VWS V14.01,2013-01-21 19:02:00,
2013-01-21 14:03:00,27.6,14.8,29.94,ESE,123,0.0,0.0,58,0.00,,---,0.00,47.00,VWS V14.01,2013-01-21 19:03:00,
2013-01-21 14:04:00,27.6,14.8,29.95,ESE,123,0.0,0.0,58,0.00,,---,0.00,46.00,VWS V14.01,2013-01-21 19:04:00,
2013-01-21 14:07:00,27.6,14.8,29.94,ESE,123,0.0,0.0,58,0.00,,---,0.00,44.00,VWS V14.01,2013-01-21 19:07:00,
2013-01-21 14:08:00,27.6,14.8,29.94,ESE,123,0.0,0.0,58,0.00,,---,0.00,44.00,VWS V14.01,2013-01-21 19:08:00,
2013-01-21 14:09:00,27.6,15.6,29.94,ESE,123,0.0,0.0,60,0.00,,---,0.00,44.00,VWS V14.01,2013-01-21 19:09:00,
2013-01-21 14:12:00,27.7,14.9,29.94,ESE,123,0.0,1.0,58,0.00,,---,0.00,40.00,VWS V14.01,2013-01-21 19:12:00,
2013-01-21 14:13:00,27.7,14.9,29.94,ESE,123,0.0,1.0,58,0.00,,---,0.00,40.00,VWS V14.01,2013-01-21 19:13:00,
2013-01-21 14:14:00,27.7,14.9,29.94,SE,142,0.0,1.0,58,0.00,,---,0.00,40.00,VWS V14.01,2013-01-21 19:14:00,
2013-01-21 14:17:00,27.7,14.9,29.94,SE,142,0.0,1.0,58,0.00,,---,0.00,37.00,VWS V14.01,2013-01-21 19:17:00,
2013-01-21 14:18:00,27.8,15.0,29.94,SE,142,0.0,1.0,58,0.00,,---,0.00,37.00,VWS V14.01,2013-01-21 19:18:00,
2013-01-21 14:19:00,27.8,15.4,29.94,SE,142,0.0,1.0,59,0.00,,---,0.00,37.00,VWS V14.01,2013-01-21 19:19:00,
2013-01-21 14:23:00,27.9,15.4,29.94,SE,142,0.0,0.0,59,0.00,,---,0.00,39.00,VWS V14.01,2013-01-21 19:23:00,
2013-01-21 14:24:00,27.9,15.8,29.94,SE,142,0.0,0.0,60,0.00,,---,0.00,39.00,VWS V14.01,2013-01-21 19:24:00,
2013-01-21 14:28:00,28.0,15.1,29.94,SE,142,0.0,0.0,58,0.00,,---,0.00,37.00,VWS V14.01,2013-01-21 19:28:00,
2013-01-21 14:29:00,28.0,15.1,29.94,SE,142,0.0,0.0,58,0.00,,---,0.00,39.00,VWS V14.01,2013-01-21 19:29:00,
2013-01-21 14:33:00,28.0,15.5,29.94,South,171,0.0,1.0,59,0.00,,---,0.00,35.00,VWS V14.01,2013-01-21 19:33:00,
2013-01-21 14:34:00,28.0,15.5,29.94,South,171,0.0,1.0,59,0.00,,---,0.00,35.00,VWS V14.01,2013-01-21 19:34:00,
2013-01-21 14:35:00,28.1,15.2,29.93,South,171,0.0,1.0,58,0.00,,---,0.00,39.00,VWS V14.01,2013-01-21 19:35:00,
2013-01-21 14:38:00,28.0,15.5,29.93,South,171,0.0,1.0,59,0.00,,---,0.00,37.00,VWS V14.01,2013-01-21 19:38:00,
2013-01-21 14:39:00,28.0,15.1,29.93,South,171,0.0,1.0,58,0.00,,---,0.00,37.00,VWS V14.01,2013-01-21 19:39:00,
2013-01-21 14:40:00,28.0,14.8,29.93,South,171,0.0,1.0,57,0.00,,---,0.00,37.00,VWS V14.01,2013-01-21 19:40:00,
2013-01-21 14:43:00,28.1,15.2,29.93,South,171,0.0,0.0,58,0.00,,---,0.00,39.00,VWS V14.01,2013-01-21 19:43:00,
2013-01-21 14:44:00,28.1,15.6,29.93,South,171,0.0,0.0,59,0.00,,---,0.00,40.00,VWS V14.01,2013-01-21 19:44:00,
2013-01-21 14:45:00,28.1,15.6,29.93,SSE,159,0.0,2.0,59,0.00,,---,0.00,40.00,VWS V14.01,2013-01-21 19:45:00,
2013-01-21 14:48:00,28.1,16.4,29.93,East,86,0.0,2.0,61,0.00,,---,0.00,39.00,VWS V14.01,2013-01-21 19:48:00,
2013-01-21 14:49:00,28.1,16.4,29.93,East,86,0.0,2.0,61,0.00,,---,0.00,37.00,VWS V14.01,2013-01-21 19:49:00,
2013-01-21 14:50:00,28.1,16.4,29.93,ESE,105,0.0,2.0,61,0.00,,---,0.00,35.00,VWS V14.01,2013-01-21 19:50:00,
2013-01-21 14:53:00,28.1,16.8,29.93,ESE,105,0.0,0.0,62,0.00,,---,0.00,35.00,VWS V14.01,2013-01-21 19:53:00,
2013-01-21 14:54:00,28.1,16.8,29.93,South,171,1.0,1.0,62,0.00,,---,0.00,33.00,VWS V14.01,2013-01-21 19:54:00,
2013-01-21 14:56:00,28.1,16.8,29.93,South,171,0.0,1.0,62,0.00,,---,0.00,32.00,VWS V14.01,2013-01-21 19:56:00,
2013-01-21 14:58:00,28.1,17.1,29.93,South,171,0.0,1.0,63,0.00,,---,0.00,28.00,VWS V14.01,2013-01-21 19:58:00,
2013-01-21 14:59:00,28.1,17.5,29.93,SE,146,1.0,2.0,64,0.00,,---,0.00,26.00,VWS V14.01,2013-01-21 19:59:00,
2013-01-21 15:01:00,28.1,17.5,29.93,SSE,155,0.0,2.0,64,0.00,,---,0.00,30.00,VWS V14.01,2013-01-21 20:01:00,
2013-01-21 15:03:00,28.1,17.9,29.93,SSE,155,0.0,0.0,65,0.00,,---,0.00,30.00,VWS V14.01,2013-01-21 20:03:00,
2013-01-21 15:04:00,28.1,17.9,29.93,SSE,155,0.0,0.0,65,0.00,,---,0.00,28.00,VWS V14.01,2013-01-21 20:04:00,
2013-01-21 15:05:00,28.1,17.9,29.93,SSE,155,0.0,0.0,65,0.00,,---,0.00,26.00,VWS V14.01,2013-01-21 20:05:00,
2013-01-21 15:06:00,28.1,17.9,29.93,SSE,155,0.0,0.0,65,0.00,,---,0.00,26.00,VWS V14.01,2013-01-21 20:06:00,
2013-01-21 15:09:00,28.1,17.5,29.92,SSE,155,0.0,0.0,64,0.00,,---,0.00,26.00,VWS V14.01,2013-01-21 20:09:00,
2013-01-21 15:10:00,28.1,17.5,29.92,SSE,155,0.0,0.0,64,0.00,,---,0.00,25.00,VWS V14.01,2013-01-21 20:10:00,
2013-01-21 15:11:00,28.1,18.2,29.92,SSE,155,0.0,0.0,66,0.00,,---,0.00,23.00,VWS V14.01,2013-01-21 20:11:00,
2013-01-21 15:14:00,28.1,17.1,29.92,SSE,155,0.0,1.0,63,0.00,,---,0.00,23.00,VWS V14.01,2013-01-21 20:14:00,
2013-01-21 15:15:00,28.1,17.1,29.92,SSE,155,0.0,1.0,63,0.00,,---,0.00,23.00,VWS V14.01,2013-01-21 20:15:00,
2013-01-21 15:16:00,28.1,17.5,29.92,SSE,155,0.0,1.0,64,0.00,,---,0.00,25.00,VWS V14.01,2013-01-21 20:16:00,
2013-01-21 15:19:00,28.1,17.9,29.92,SSE,155,0.0,1.0,65,0.00,,---,0.00,25.00,VWS V14.01,2013-01-21 20:19:00,
2013-01-21 15:20:00,28.2,18.0,29.92,SSE,155,0.0,1.0,65,0.00,,---,0.00,25.00,VWS V14.01,2013-01-21 20:20:00,
2013-01-21 15:21:00,28.2,18.0,29.92,SSW,199,1.0,1.0,65,0.00,,---,0.00,25.00,VWS V14.01,2013-01-21 20:21:00,
2013-01-21 15:24:00,28.2,18.0,29.92,SSW,205,0.0,2.0,65,0.00,,---,0.00,26.00,VWS V14.01,2013-01-21 20:24:00,
2013-01-21 15:25:00,28.2,18.0,29.92,SSW,205,0.0,2.0,65,0.00,,---,0.00,26.00,VWS V14.01,2013-01-21 20:25:00,
2013-01-21 15:26:00,28.2,18.0,29.92,SSW,205,0.0,2.0,65,0.00,,---,0.00,26.00,VWS V14.01,2013-01-21 20:26:00,
2013-01-21 15:29:00,28.1,17.9,29.91,South,184,0.0,2.0,65,0.00,,---,0.00,28.00,VWS V14.01,2013-01-21 20:29:00,
2013-01-21 15:30:00,28.2,18.0,29.91,South,184,0.0,2.0,65,0.00,,---,0.00,28.00,VWS V14.01,2013-01-21 20:30:00,
2013-01-21 15:31:00,28.2,18.0,29.91,South,178,0.0,2.0,65,0.00,,---,0.00,28.00,VWS V14.01,2013-01-21 20:31:00,
2013-01-21 15:34:00,28.2,18.0,29.92,SW,221,0.0,2.0,65,0.00,,---,0.00,28.00,VWS V14.01,2013-01-21 20:34:00,
2013-01-21 15:35:00,28.2,18.0,29.92,SW,225,0.0,2.0,65,0.00,,---,0.00,26.00,VWS V14.01,2013-01-21 20:35:00,
2013-01-21 15:36:00,28.2,18.0,29.92,SSW,193,0.0,2.0,65,0.00,,---,0.00,25.00,VWS V14.01,2013-01-21 20:36:00,
2013-01-21 15:39:00,28.2,18.3,29.91,SSW,193,0.0,2.0,66,0.00,,---,0.00,21.00,VWS V14.01,2013-01-21 20:39:00,
2013-01-21 15:40:00,28.1,18.2,29.91,SSW,193,0.0,2.0,66,0.00,,---,0.00,21.00,VWS V14.01,2013-01-21 20:40:00,
2013-01-21 15:41:00,28.2,18.3,29.91,SSW,193,0.0,2.0,66,0.00,,---,0.00,19.00,VWS V14.01,2013-01-21 20:41:00,
2013-01-21 15:44:00,28.1,18.2,29.91,SSW,192,0.0,1.0,66,0.00,,---,0.00,19.00,VWS V14.01,2013-01-21 20:44:00,
2013-01-21 15:45:00,28.1,18.2,29.91,SSW,192,0.0,1.0,66,0.00,,---,0.00,19.00,VWS V14.01,2013-01-21 20:45:00,
2013-01-21 15:46:00,28.1,18.2,29.91,South,191,0.0,1.0,66,0.00,,---,0.00,19.00,VWS V14.01,2013-01-21 20:46:00,
2013-01-21 15:50:00,28.1,18.2,29.91,SW,232,0.0,3.0,66,0.00,,---,0.00,21.00,VWS V14.01,2013-01-21 20:50:00,
2013-01-21 15:51:00,28.1,18.2,29.91,SW,232,0.0,3.0,66,0.00,,---,0.00,21.00,VWS V14.01,2013-01-21 20:51:00,
2013-01-21 15:55:00,28.1,18.2,29.90,SW,232,0.0,1.0,66,0.00,,---,0.00,16.00,VWS V14.01,2013-01-21 20:55:00,
2013-01-21 15:56:00,28.1,18.2,29.90,SW,232,1.0,2.0,66,0.00,,---,0.00,16.00,VWS V14.01,2013-01-21 20:56:00,
2013-01-21 16:00:00,28.1,18.2,29.90,NW,306,0.0,3.0,66,0.00,,---,0.00,14.00,VWS V14.01,2013-01-21 21:00:00,
2013-01-21 16:01:00,28.1,18.2,29.90,NW,306,0.0,3.0,66,0.00,,---,0.00,14.00,VWS V14.01,2013-01-21 21:01:00,
2013-01-21 16:02:00,28.1,18.2,29.90,WNW,298,0.0,1.0,66,0.00,,---,0.00,16.00,VWS V14.01,2013-01-21 21:02:00,
2013-01-21 16:05:00,28.1,18.2,29.90,WNW,290,0.0,1.0,66,0.00,,---,0.00,16.00,VWS V14.01,2013-01-21 21:05:00,
2013-01-21 16:06:00,28.1,18.6,29.90,WNW,290,0.0,1.0,67,0.00,,---,0.00,16.00,VWS V14.01,2013-01-21 21:06:00,
2013-01-21 16:07:00,28.1,18.6,29.90,WNW,290,0.0,1.0,67,0.00,,---,0.00,12.00,VWS V14.01,2013-01-21 21:07:00,
2013-01-21 16:10:00,28.1,18.6,29.89,SSW,207,0.0,1.0,67,0.00,,---,0.00,12.00,VWS V14.01,2013-01-21 21:10:00,
2013-01-21 16:11:00,28.1,18.6,29.89,SSW,194,0.0,1.0,67,0.00,,---,0.00,12.00,VWS V14.01,2013-01-21 21:11:00,
2013-01-21 16:12:00,28.1,18.6,29.89,SSW,194,0.0,0.0,67,0.00,,---,0.00,12.00,VWS V14.01,2013-01-21 21:12:00,
2013-01-21 16:15:00,28.1,18.6,29.89,SSW,194,0.0,0.0,67,0.00,,---,0.00,11.00,VWS V14.01,2013-01-21 21:15:00,
2013-01-21 16:16:00,28.1,18.6,29.89,SSW,194,0.0,0.0,67,0.00,,---,0.00,11.00,VWS V14.01,2013-01-21 21:16:00,
2013-01-21 16:17:00,28.1,18.6,29.89,WSW,241,1.0,1.0,67,0.00,,---,0.00,9.00,VWS V14.01,2013-01-21 21:17:00,
2013-01-21 16:21:00,28.0,18.5,29.89,SW,236,0.0,2.0,67,0.00,,---,0.00,9.00,VWS V14.01,2013-01-21 21:21:00,
2013-01-21 16:22:00,28.0,18.1,29.89,SW,236,0.0,0.0,66,0.00,,---,0.00,7.00,VWS V14.01,2013-01-21 21:22:00,
2013-01-21 16:26:00,28.0,18.5,29.89,WNW,287,0.0,1.0,67,0.00,,---,0.00,7.00,VWS V14.01,2013-01-21 21:26:00,
2013-01-21 16:28:00,28.0,18.8,29.89,South,178,0.0,1.0,68,0.00,,---,0.00,7.00,VWS V14.01,2013-01-21 21:28:00,
2013-01-21 16:31:00,28.0,18.5,29.89,South,178,0.0,1.0,67,0.00,,---,0.00,5.00,VWS V14.01,2013-01-21 21:31:00,
2013-01-21 16:33:00,27.9,18.7,29.89,South,178,0.0,0.0,68,0.00,,---,0.00,5.00,VWS V14.01,2013-01-21 21:33:00,
2013-01-21 16:36:00,27.9,18.7,29.89,South,178,0.0,0.0,68,0.00,,---,0.00,0.00,VWS V14.01,2013-01-21 21:36:00,
2013-01-21 16:37:00,27.9,18.7,29.89,South,178,0.0,0.0,68,0.00,,---,0.00,0.00,VWS V14.01,2013-01-21 21:37:00,
2013-01-21 16:38:00,27.9,19.1,29.90,South,178,0.0,0.0,69,0.00,,---,0.00,0.00,VWS V14.01,2013-01-21 21:38:00,
2013-01-21 16:41:00,27.9,19.1,29.90,South,178,0.0,0.0,69,0.00,,---,0.00,0.00,VWS V14.01,2013-01-21 21:41:00,
2013-01-21 16:42:00,27.9,19.1,29.90,South,178,0.0,0.0,69,0.00,,---,0.00,0.00,VWS V14.01,2013-01-21 21:42:00,
2013-01-21 16:43:00,27.9,19.1,29.89,South,178,0.0,0.0,69,0.00,,---,0.00,0.00,VWS V14.01,2013-01-21 21:43:00,
2013-01-21 16:46:00,27.9,19.1,29.89,South,178,0.0,1.0,69,0.00,,---,0.00,0.00,VWS V14.01,2013-01-21 21:46:00,
2013-01-21 16:47:00,27.9,19.4,29.89,South,178,0.0,1.0,70,0.00,,---,0.00,0.00,VWS V14.01,2013-01-21 21:47:00,
2013-01-21 16:48:00,27.9,19.1,29.89,South,178,0.0,1.0,69,0.00,,---,0.00,0.00,VWS V14.01,2013-01-21 21:48:00,
2013-01-21 16:51:00,27.8,19.0,29.89,South,178,0.0,1.0,69,0.00,,---,0.00,0.00,VWS V14.01,2013-01-21 21:51:00,
2013-01-21 16:52:00,27.9,19.1,29.89,South,178,0.0,0.0,69,0.00,,---,0.00,0.00,VWS V14.01,2013-01-21 21:52:00,
2013-01-21 16:53:00,27.8,19.0,29.89,South,178,0.0,0.0,69,0.00,,---,0.00,0.00,VWS V14.01,2013-01-21 21:53:00,
2013-01-21 16:56:00,27.8,19.3,29.90,South,178,0.0,0.0,70,0.00,,---,0.00,0.00,VWS V14.01,2013-01-21 21:56:00,
2013-01-21 16:57:00,27.8,19.3,29.90,South,178,0.0,0.0,70,0.00,,---,0.00,0.00,VWS V14.01,2013-01-21 21:57:00,
2013-01-21 16:58:00,27.7,19.2,29.90,South,178,0.0,0.0,70,0.00,,---,0.00,0.00,VWS V14.01,2013-01-21 21:58:00,
2013-01-21 17:01:00,27.7,19.5,29.90,South,178,0.0,0.0,71,0.00,,---,0.00,0.00,VWS V14.01,2013-01-21 22:01:00,
2013-01-21 17:02:00,27.7,19.5,29.90,South,178,0.0,0.0,71,0.00,,---,0.00,0.00,VWS V14.01,2013-01-21 22:02:00,
2013-01-21 17:03:00,27.7,19.5,29.90,South,178,0.0,0.0,71,0.00,,---,0.00,0.00,VWS V14.01,2013-01-21 22:03:00,
2013-01-21 17:06:00,27.6,19.4,29.89,South,178,0.0,0.0,71,0.00,,---,0.00,0.00,VWS V14.01,2013-01-21 22:06:00,
2013-01-21 17:07:00,27.6,19.4,29.89,South,178,0.0,0.0,71,0.00,,---,0.00,0.00,VWS V14.01,2013-01-21 22:07:00,
2013-01-21 17:08:00,27.6,19.4,29.89,South,178,0.0,0.0,71,0.00,,---,0.00,0.00,VWS V14.01,2013-01-21 22:08:00,
2013-01-21 17:11:00,27.5,19.4,29.89,South,178,0.0,0.0,71,0.00,,---,0.00,0.00,VWS V14.01,2013-01-21 22:11:00,
2013-01-21 17:12:00,27.5,19.4,29.89,SSW,203,0.0,1.0,71,0.00,,---,0.00,0.00,VWS V14.01,2013-01-21 22:12:00,
2013-01-21 17:13:00,27.5,19.4,29.89,SSW,203,0.0,1.0,71,0.00,,---,0.00,0.00,VWS V14.01,2013-01-21 22:13:00,
2013-01-21 17:16:00,27.4,18.9,29.89,SSW,203,0.0,1.0,70,0.00,,---,0.00,0.00,VWS V14.01,2013-01-21 22:16:00,
2013-01-21 17:17:00,27.4,18.9,29.89,SSW,203,0.0,1.0,70,0.00,,---,0.00,0.00,VWS V14.01,2013-01-21 22:17:00,
2013-01-21 17:18:00,27.4,19.2,29.89,SSW,203,0.0,1.0,71,0.00,,---,0.00,0.00,VWS V14.01,2013-01-21 22:18:00,
2013-01-21 17:21:00,27.4,19.2,29.89,SSW,203,0.0,0.0,71,0.00,,---,0.00,0.00,VWS V14.01,2013-01-21 22:21:00,
2013-01-21 17:22:00,27.4,19.2,29.89,SSW,203,0.0,0.0,71,0.00,,---,0.00,0.00,VWS V14.01,2013-01-21 22:22:00,
2013-01-21 17:23:00,27.4,19.2,29.89,SSW,203,0.0,0.0,71,0.00,,---,0.00,0.00,VWS V14.01,2013-01-21 22:23:00,
2013-01-21 17:26:00,27.4,19.2,29.89,SSW,203,0.0,0.0,71,0.00,,---,0.00,0.00,VWS V14.01,2013-01-21 22:26:00,
2013-01-21 17:27:00,27.3,19.1,29.89,SSW,203,0.0,0.0,71,0.00,,---,0.00,0.00,VWS V14.01,2013-01-21 22:27:00,
2013-01-21 17:28:00,27.4,19.2,29.89,SSW,203,0.0,0.0,71,0.00,,---,0.00,0.00,VWS V14.01,2013-01-21 22:28:00,
2013-01-21 17:31:00,27.3,19.1,29.89,SSW,203,0.0,0.0,71,0.00,,---,0.00,0.00,VWS V14.01,2013-01-21 22:31:00,
2013-01-21 17:32:00,27.3,19.1,29.89,SSW,203,0.0,0.0,71,0.00,,---,0.00,0.00,VWS V14.01,2013-01-21 22:32:00,
2013-01-21 17:33:00,27.3,19.5,29.89,SSW,203,0.0,0.0,72,0.00,,---,0.00,0.00,VWS V14.01,2013-01-21 22:33:00,
2013-01-21 17:36:00,27.3,19.1,29.89,SSW,203,0.0,0.0,71,0.00,,---,0.00,0.00,VWS V14.01,2013-01-21 22:36:00,
2013-01-21 17:37:00,27.3,19.1,29.89,SSW,203,0.0,0.0,71,0.00,,---,0.00,0.00,VWS V14.01,2013-01-21 22:37:00,
2013-01-21 17:38:00,27.2,19.1,29.89,SSW,203,0.0,0.0,71,0.00,,---,0.00,0.00,VWS V14.01,2013-01-21 22:38:00,
2013-01-21 17:39:00,27.3,19.1,29.89,SSW,203,0.0,0.0,71,0.00,,---,0.00,0.00,VWS V14.01,2013-01-21 22:39:00,
2013-01-21 17:42:00,27.2,19.1,29.89,SSW,203,0.0,0.0,71,0.00,,---,0.00,0.00,VWS V14.01,2013-01-21 22:42:00,
2013-01-21 17:43:00,27.2,19.1,29.89,SSW,203,0.0,0.0,71,0.00,,---,0.00,0.00,VWS V14.01,2013-01-21 22:43:00,
2013-01-21 17:44:00,27.2,19.1,29.89,SSW,203,0.0,0.0,71,0.00,,---,0.00,0.00,VWS V14.01,2013-01-21 22:44:00,
2013-01-21 17:47:00,27.2,19.1,29.89,SSW,203,0.0,0.0,71,0.00,,---,0.00,0.00,VWS V14.01,2013-01-21 22:47:00,
2013-01-21 17:48:00,27.1,19.3,29.89,SSW,203,0.0,0.0,72,0.00,,---,0.00,0.00,VWS V14.01,2013-01-21 22:48:00,
2013-01-21 17:49:00,27.1,19.3,29.89,SSW,203,0.0,0.0,72,0.00,,---,0.00,0.00,VWS V14.01,2013-01-21 22:49:00,
2013-01-21 17:52:00,27.1,19.3,29.88,SSW,203,0.0,0.0,72,0.00,,---,0.00,0.00,VWS V14.01,2013-01-21 22:52:00,
2013-01-21 17:53:00,27.1,19.3,29.88,SSW,203,0.0,0.0,72,0.00,,---,0.00,0.00,VWS V14.01,2013-01-21 22:53:00,
2013-01-21 17:54:00,27.1,19.3,29.88,SSW,203,0.0,0.0,72,0.00,,---,0.00,0.00,VWS V14.01,2013-01-21 22:54:00,
2013-01-21 17:57:00,27.0,19.2,29.88,SSW,203,0.0,0.0,72,0.00,,---,0.00,0.00,VWS V14.01,2013-01-21 22:57:00,
2013-01-21 17:58:00,27.0,19.2,29.88,SSW,203,0.0,0.0,72,0.00,,---,0.00,0.00,VWS V14.01,2013-01-21 22:58:00,
2013-01-21 17:59:00,27.0,19.2,29.88,SSW,203,0.0,0.0,72,0.00,,---,0.00,0.00,VWS V14.01,2013-01-21 22:59:00,
2013-01-21 18:02:00,27.0,19.2,29.89,SSW,203,0.0,0.0,72,0.00,,---,0.00,0.00,VWS V14.01,2013-01-21 23:02:00,
2013-01-21 18:03:00,27.0,19.2,29.89,SSW,203,0.0,0.0,72,0.00,,---,0.00,0.00,VWS V14.01,2013-01-21 23:03:00,
2013-01-21 18:04:00,27.0,19.5,29.89,SSW,203,0.0,0.0,73,0.00,,---,0.00,0.00,VWS V14.01,2013-01-21 23:04:00,
2013-01-21 18:07:00,27.0,19.2,29.88,SSW,203,0.0,0.0,72,0.00,,---,0.00,0.00,VWS V14.01,2013-01-21 23:07:00,
2013-01-21 18:08:00,27.0,19.5,29.88,SSW,203,0.0,0.0,73,0.00,,---,0.00,0.00,VWS V14.01,2013-01-21 23:08:00,
2013-01-21 18:09:00,26.9,19.4,29.88,SSW,203,0.0,0.0,73,0.00,,---,0.00,0.00,VWS V14.01,2013-01-21 23:09:00,
2013-01-21 18:13:00,27.0,19.2,29.88,SSW,203,0.0,0.0,72,0.00,,---,0.00,0.00,VWS V14.01,2013-01-21 23:13:00,
2013-01-21 18:14:00,26.9,19.1,29.89,SSW,203,0.0,0.0,72,0.00,,---,0.00,0.00,VWS V14.01,2013-01-21 23:14:00,
2013-01-21 18:18:00,26.9,19.1,29.88,SSW,203,0.0,0.0,72,0.00,,---,0.00,0.00,VWS V14.01,2013-01-21 23:18:00,
2013-01-21 18:19:00,26.9,19.1,29.88,SSW,203,0.0,0.0,72,0.00,,---,0.00,0.00,VWS V14.01,2013-01-21 23:19:00,
2013-01-21 18:23:00,26.9,19.7,29.89,SSW,203,0.0,0.0,74,0.00,,---,0.00,0.00,VWS V14.01,2013-01-21 23:23:00,
2013-01-21 18:24:00,26.9,19.7,29.89,SSW,203,0.0,0.0,74,0.00,,---,0.00,0.00,VWS V14.01,2013-01-21 23:24:00,
2013-01-21 18:28:00,26.9,19.4,29.89,SSW,203,0.0,0.0,73,0.00,,---,0.00,0.00,VWS V14.01,2013-01-21 23:28:00,
2013-01-21 18:29:00,26.9,19.4,29.89,SSW,203,0.0,0.0,73,0.00,,---,0.00,0.00,VWS V14.01,2013-01-21 23:29:00,
2013-01-21 18:33:00,26.9,19.1,29.89,SSW,203,0.0,0.0,72,0.00,,---,0.00,0.00,VWS V14.01,2013-01-21 23:33:00,
2013-01-21 18:34:00,26.9,19.1,29.88,SSW,203,0.0,0.0,72,0.00,,---,0.00,0.00,VWS V14.01,2013-01-21 23:34:00,
2013-01-21 18:38:00,26.8,19.0,29.89,SSW,203,0.0,0.0,72,0.00,,---,0.00,0.00,VWS V14.01,2013-01-21 23:38:00,
2013-01-21 18:39:00,26.9,19.4,29.89,SSW,203,0.0,0.0,73,0.00,,---,0.00,0.00,VWS V14.01,2013-01-21 23:39:00,
2013-01-21 18:43:00,26.8,19.0,29.89,SSW,203,0.0,0.0,72,0.00,,---,0.00,0.00,VWS V14.01,2013-01-21 23:43:00,
2013-01-21 18:44:00,26.9,19.4,29.89,SSW,203,0.0,0.0,73,0.00,,---,0.00,0.00,VWS V14.01,2013-01-21 23:44:00,
2013-01-21 18:48:00,26.8,19.0,29.88,SSW,203,0.0,0.0,72,0.00,,---,0.00,0.00,VWS V14.01,2013-01-21 23:48:00,
2013-01-21 18:49:00,26.8,19.0,29.88,SSW,203,0.0,0.0,72,0.00,,---,0.00,0.00,VWS V14.01,2013-01-21 23:49:00,
2013-01-21 18:53:00,26.8,19.0,29.88,SSW,203,0.0,0.0,72,0.00,,---,0.00,0.00,VWS V14.01,2013-01-21 23:53:00,
2013-01-21 18:54:00,26.8,19.0,29.88,SSW,203,0.0,0.0,72,0.00,,---,0.00,0.00,VWS V14.01,2013-01-21 23:54:00,
2013-01-21 18:59:00,26.7,19.2,29.88,SSW,203,0.0,0.0,73,0.00,,---,0.00,0.00,VWS V14.01,2013-01-21 23:59:00,
2013-01-21 19:00:00,26.7,19.2,29.88,SSW,203,0.0,0.0,73,0.00,,---,0.00,0.00,VWS V14.01,2013-01-22 00:00:00,
2013-01-21 19:04:00,26.6,19.4,29.87,SSW,203,0.0,0.0,74,0.00,,---,0.00,0.00,VWS V14.01,2013-01-22 00:04:00,
2013-01-21 19:05:00,26.6,19.1,29.87,SSW,203,0.0,0.0,73,0.00,,---,0.00,0.00,VWS V14.01,2013-01-22 00:05:00,
2013-01-21 19:09:00,26.6,19.1,29.88,SSW,203,0.0,0.0,73,0.00,,---,0.00,0.00,VWS V14.01,2013-01-22 00:09:00,
2013-01-21 19:10:00,26.6,19.1,29.88,SSW,203,0.0,0.0,73,0.00,,---,0.00,0.00,VWS V14.01,2013-01-22 00:10:00,
2013-01-21 19:14:00,26.5,19.4,29.87,SSW,203,0.0,0.0,74,0.00,,---,0.00,0.00,VWS V14.01,2013-01-22 00:14:00,
2013-01-21 19:15:00,26.6,19.4,29.87,SSW,203,0.0,0.0,74,0.00,,---,0.00,0.00,VWS V14.01,2013-01-22 00:15:00,
2013-01-21 19:19:00,26.5,19.7,29.87,SSW,203,0.0,0.0,75,0.00,,---,0.00,0.00,VWS V14.01,2013-01-22 00:19:00,
2013-01-21 19:20:00,26.5,19.7,29.87,SSW,203,0.0,0.0,75,0.00,,---,0.00,0.00,VWS V14.01,2013-01-22 00:20:00,
2013-01-21 19:24:00,26.5,19.7,29.88,SSW,203,0.0,0.0,75,0.00,,---,0.00,0.00,VWS V14.01,2013-01-22 00:24:00,
2013-01-21 19:25:00,26.5,19.7,29.88,SSW,203,0.0,0.0,75,0.00,,---,0.00,0.00,VWS V14.01,2013-01-22 00:25:00,
2013-01-21 19:29:00,26.4,19.6,29.88,SSW,203,0.0,0.0,75,0.00,,---,0.00,0.00,VWS V14.01,2013-01-22 00:29:00,
2013-01-21 19:30:00,26.4,19.6,29.88,SSW,203,0.0,0.0,75,0.00,,---,0.00,0.00,VWS V14.01,2013-01-22 00:30:00,
2013-01-21 19:34:00,26.3,19.5,29.88,SSW,203,0.0,0.0,75,0.00,,---,0.00,0.00,VWS V14.01,2013-01-22 00:34:00,
2013-01-21 19:35:00,26.3,19.5,29.88,SSW,203,0.0,0.0,75,0.00,,---,0.00,0.00,VWS V14.01,2013-01-22 00:35:00,
2013-01-21 19:40:00,26.3,19.8,29.88,SSW,203,0.0,0.0,76,0.00,,---,0.00,0.00,VWS V14.01,2013-01-22 00:40:00,
2013-01-21 19:41:00,26.3,19.8,29.88,SSW,203,0.0,0.0,76,0.00,,---,0.00,0.00,VWS V14.01,2013-01-22 00:41:00,
2013-01-21 19:45:00,26.2,19.7,29.87,SSW,203,0.0,0.0,76,0.00,,---,0.00,0.00,VWS V14.01,2013-01-22 00:45:00,
2013-01-21 19:46:00,26.3,19.8,29.87,SSW,203,0.0,0.0,76,0.00,,---,0.00,0.00,VWS V14.01,2013-01-22 00:46:00,
2013-01-21 19:50:00,26.2,20.0,29.87,SW,231,0.0,1.0,77,0.00,,---,0.00,0.00,VWS V14.01,2013-01-22 00:50:00,
2013-01-21 19:51:00,26.2,20.0,29.87,SW,231,0.0,1.0,77,0.00,,---,0.00,0.00,VWS V14.01,2013-01-22 00:51:00,
2013-01-21 19:55:00,26.2,19.7,29.87,SW,232,0.0,0.0,76,0.00,,---,0.00,0.00,VWS V14.01,2013-01-22 00:55:00,
2013-01-21 19:56:00,26.2,19.7,29.87,SW,231,0.0,0.0,76,0.00,,---,0.00,0.00,VWS V14.01,2013-01-22 00:56:00,
2013-01-21 20:00:00,26.2,19.4,29.87,SW,232,0.0,1.0,75,0.00,,---,0.00,0.00,VWS V14.01,2013-01-22 01:00:00,
2013-01-21 20:01:00,26.2,19.4,29.87,SW,232,0.0,1.0,75,0.00,,---,0.00,0.00,VWS V14.01,2013-01-22 01:01:00,
2013-01-21 20:06:00,26.2,19.7,29.87,SW,231,0.0,0.0,76,0.00,,---,0.00,0.00,VWS V14.01,2013-01-22 01:06:00,
2013-01-21 20:11:00,26.2,20.0,29.87,West,269,0.0,1.0,77,0.00,,---,0.00,0.00,VWS V14.01,2013-01-22 01:11:00,
2013-01-21 20:16:00,26.2,20.3,29.87,WNW,289,0.0,1.0,78,0.00,,---,0.00,0.00,VWS V14.01,2013-01-22 01:16:00,
2013-01-21 20:21:00,26.2,20.3,29.87,North,350,0.0,2.0,78,0.00,,---,0.00,0.00,VWS V14.01,2013-01-22 01:21:00,
2013-01-21 20:22:00,26.2,20.6,29.87,North,350,0.0,0.0,79,0.00,,---,0.00,0.00,VWS V14.01,2013-01-22 01:22:00,
2013-01-21 20:26:00,26.1,20.8,29.87,North,5,0.0,2.0,80,0.00,,---,0.00,0.00,VWS V14.01,2013-01-22 01:26:00,
2013-01-21 20:27:00,26.1,20.8,29.87,North,5,0.0,2.0,80,0.00,,---,0.00,0.00,VWS V14.01,2013-01-22 01:27:00,
2013-01-21 20:31:00,26.1,21.1,29.87,North,5,0.0,2.0,81,0.00,,---,0.00,0.00,VWS V14.01,2013-01-22 01:31:00,
2013-01-21 20:32:00,26.1,21.1,29.87,North,5,0.0,0.0,81,0.00,,---,0.00,0.00,VWS V14.01,2013-01-22 01:32:00,
2013-01-21 20:36:00,26.0,21.0,29.87,North,360,0.0,0.0,81,0.00,,---,0.00,0.00,VWS V14.01,2013-01-22 01:36:00,
2013-01-21 20:37:00,26.0,21.3,29.87,North,355,0.0,0.0,82,0.00,,---,0.00,0.00,VWS V14.01,2013-01-22 01:37:00,
2013-01-21 20:41:00,25.9,21.2,29.86,NNW,342,0.0,0.0,82,0.00,,---,0.00,0.00,VWS V14.01,2013-01-22 01:41:00,
2013-01-21 20:42:00,25.9,21.2,29.86,NNW,342,0.0,0.0,82,0.00,,---,0.00,0.00,VWS V14.01,2013-01-22 01:42:00,
2013-01-21 20:46:00,25.8,21.1,29.87,NNW,342,0.0,0.0,82,0.00,,---,0.00,0.00,VWS V14.01,2013-01-22 01:46:00,
2013-01-21 20:47:00,25.8,21.1,29.87,NNW,342,0.0,0.0,82,0.00,,---,0.00,0.00,VWS V14.01,2013-01-22 01:47:00,
2013-01-21 20:48:00,25.8,21.4,29.87,NNW,342,0.0,0.0,83,0.00,,---,0.00,0.00,VWS V14.01,2013-01-22 01:48:00,
2013-01-21 20:51:00,25.8,21.1,29.86,NNW,342,0.0,0.0,82,0.00,,---,0.00,0.00,VWS V14.01,2013-01-22 01:51:00,
2013-01-21 20:52:00,25.8,21.1,29.86,NNW,342,0.0,0.0,82,0.00,,---,0.00,0.00,VWS V14.01,2013-01-22 01:52:00,
2013-01-21 20:53:00,25.7,21.0,29.86,NNW,342,0.0,0.0,82,0.00,,---,0.00,0.00,VWS V14.01,2013-01-22 01:53:00,
2013-01-21 20:56:00,25.7,21.3,29.86,NNW,342,0.0,0.0,83,0.00,,---,0.00,0.00,VWS V14.01,2013-01-22 01:56:00,
2013-01-21 20:57:00,25.7,21.3,29.86,NNW,342,0.0,0.0,83,0.00,,---,0.00,0.00,VWS V14.01,2013-01-22 01:57:00,
2013-01-21 20:58:00,25.6,21.2,29.85,NNW,342,0.0,0.0,83,0.00,,---,0.00,0.00,VWS V14.01,2013-01-22 01:58:00,
2013-01-21 21:01:00,25.6,21.2,29.85,NNW,342,0.0,0.0,83,0.00,,---,0.00,0.00,VWS V14.01,2013-01-22 02:01:00,
2013-01-21 21:02:00,25.6,21.2,29.85,NNW,342,0.0,0.0,83,0.00,,---,0.00,0.00,VWS V14.01,2013-01-22 02:02:00,
2013-01-21 21:03:00,25.6,21.2,29.85,NNW,342,0.0,0.0,83,0.00,,---,0.00,0.00,VWS V14.01,2013-01-22 02:03:00,
2013-01-21 21:06:00,25.4,21.0,29.85,NNW,342,0.0,0.0,83,0.00,,---,0.00,0.00,VWS V14.01,2013-01-22 02:06:00,
2013-01-21 21:07:00,25.4,21.0,29.85,NNW,342,0.0,0.0,83,0.00,,---,0.00,0.00,VWS V14.01,2013-01-22 02:07:00,
2013-01-21 21:08:00,25.4,21.0,29.85,NNW,342,0.0,0.0,83,0.00,,---,0.00,0.00,VWS V14.01,2013-01-22 02:08:00,
2013-01-21 21:11:00,25.4,21.0,29.84,NNW,342,0.0,0.0,83,0.00,,---,0.00,0.00,VWS V14.01,2013-01-22 02:11:00,
2013-01-21 21:12:00,25.4,21.0,29.84,NNW,342,0.0,0.0,83,0.00,,---,0.00,0.00,VWS V14.01,2013-01-22 02:12:00,
2013-01-21 21:13:00,25.4,21.0,29.84,NNW,342,0.0,0.0,83,0.00,,---,0.00,0.00,VWS V14.01,2013-01-22 02:13:00,
2013-01-21 21:16:00,25.3,21.1,29.84,NNW,342,0.0,0.0,84,0.00,,---,0.00,0.00,VWS V14.01,2013-01-22 02:16:00,
2013-01-21 21:17:00,25.3,20.9,29.84,NNW,342,0.0,0.0,83,0.00,,---,0.00,0.00,VWS V14.01,2013-01-22 02:17:00,
2013-01-21 21:18:00,25.3,20.9,29.84,NNW,342,0.0,0.0,83,0.00,,---,0.00,0.00,VWS V14.01,2013-01-22 02:18:00,
2013-01-21 21:21:00,25.3,20.9,29.84,NNW,342,0.0,0.0,83,0.00,,---,0.00,0.00,VWS V14.01,2013-01-22 02:21:00,
2013-01-21 21:22:00,25.3,20.9,29.84,NNW,342,0.0,0.0,83,0.00,,---,0.00,0.00,VWS V14.01,2013-01-22 02:22:00,
2013-01-21 21:23:00,25.3,20.9,29.84,NNW,342,0.0,0.0,83,0.00,,---,0.00,0.00,VWS V14.01,2013-01-22 02:23:00,
2013-01-21 21:26:00,25.2,21.0,29.84,NNW,342,0.0,0.0,84,0.00,,---,0.00,0.00,VWS V14.01,2013-01-22 02:26:00,
2013-01-21 21:27:00,25.2,21.0,29.84,NNW,342,0.0,0.0,84,0.00,,---,0.00,0.00,VWS V14.01,2013-01-22 02:27:00,
2013-01-21 21:28:00,25.2,21.0,29.84,NNW,342,0.0,0.0,84,0.00,,---,0.00,0.00,VWS V14.01,2013-01-22 02:28:00,
2013-01-21 21:31:00,25.2,20.8,29.84,NNW,342,0.0,0.0,83,0.00,,---,0.00,0.00,VWS V14.01,2013-01-22 02:31:00,
2013-01-21 21:33:00,25.2,21.0,29.84,NNW,342,0.0,0.0,84,0.00,,---,0.00,0.00,VWS V14.01,2013-01-22 02:33:00,
2013-01-21 21:36:00,25.2,21.0,29.85,NNW,342,0.0,0.0,84,0.00,,---,0.00,0.00,VWS V14.01,2013-01-22 02:36:00,
2013-01-21 21:38:00,25.2,21.0,29.85,NNW,342,0.0,0.0,84,0.00,,---,0.00,0.00,VWS V14.01,2013-01-22 02:38:00,
2013-01-21 21:39:00,25.2,21.0,29.85,NNW,342,0.0,0.0,84,0.00,,---,0.00,0.00,VWS V14.01,2013-01-22 02:39:00,
2013-01-21 21:42:00,25.1,21.0,29.85,NNW,342,0.0,0.0,84,0.00,,---,0.00,0.00,VWS V14.01,2013-01-22 02:42:00,
2013-01-21 21:43:00,25.1,21.0,29.84,NNW,342,0.0,0.0,84,0.00,,---,0.00,0.00,VWS V14.01,2013-01-22 02:43:00,
2013-01-21 21:44:00,25.1,21.0,29.84,NNW,342,0.0,0.0,84,0.00,,---,0.00,0.00,VWS V14.01,2013-01-22 02:44:00,
2013-01-21 21:47:00,25.1,21.0,29.84,NNW,342,0.0,0.0,84,0.00,,---,0.00,0.00,VWS V14.01,2013-01-22 02:47:00,
2013-01-21 21:48:00,25.1,21.0,29.84,NNW,342,0.0,0.0,84,0.00,,---,0.00,0.00,VWS V14.01,2013-01-22 02:48:00,
2013-01-21 21:49:00,25.1,21.0,29.84,NNW,342,0.0,0.0,84,0.00,,---,0.00,0.00,VWS V14.01,2013-01-22 02:49:00,
2013-01-21 21:52:00,25.1,21.0,29.84,NNW,342,0.0,0.0,84,0.00,,---,0.00,0.00,VWS V14.01,2013-01-22 02:52:00,
2013-01-21 21:53:00,25.1,21.0,29.84,NNW,342,0.0,0.0,84,0.00,,---,0.00,0.00,VWS V14.01,2013-01-22 02:53:00,
2013-01-21 21:54:00,25.1,21.0,29.84,NNW,342,0.0,0.0,84,0.00,,---,0.00,0.00,VWS V14.01,2013-01-22 02:54:00,
2013-01-21 21:57:00,25.1,21.0,29.84,NNW,342,0.0,0.0,84,0.00,,---,0.00,0.00,VWS V14.01,2013-01-22 02:57:00,
2013-01-21 21:58:00,25.1,21.0,29.84,NNW,342,0.0,0.0,84,0.00,,---,0.00,0.00,VWS V14.01,2013-01-22 02:58:00,
2013-01-21 21:59:00,25.1,20.7,29.84,NNW,342,0.0,0.0,83,0.00,,---,0.00,0.00,VWS V14.01,2013-01-22 02:59:00,
2013-01-21 22:02:00,25.1,20.7,29.84,NNW,342,0.0,0.0,83,0.00,,---,0.00,0.00,VWS V14.01,2013-01-22 03:02:00,
2013-01-21 22:03:00,25.1,20.7,29.84,NNW,342,0.0,0.0,83,0.00,,---,0.00,0.00,VWS V14.01,2013-01-22 03:03:00,
2013-01-21 22:04:00,25.1,20.7,29.83,NNW,342,0.0,0.0,83,0.00,,---,0.00,0.00,VWS V14.01,2013-01-22 03:04:00,
2013-01-21 22:07:00,25.1,21.0,29.83,NNW,342,0.0,0.0,84,0.00,,---,0.00,0.00,VWS V14.01,2013-01-22 03:07:00,
2013-01-21 22:08:00,25.1,21.0,29.83,NNW,342,0.0,0.0,84,0.00,,---,0.00,0.00,VWS V14.01,2013-01-22 03:08:00,
2013-01-21 22:09:00,25.1,21.0,29.83,NNW,342,0.0,0.0,84,0.00,,---,0.00,0.00,VWS V14.01,2013-01-22 03:09:00,
2013-01-21 22:12:00,25.1,21.0,29.83,NNW,342,0.0,0.0,84,0.00,,---,0.00,0.00,VWS V14.01,2013-01-22 03:12:00,
2013-01-21 22:14:00,25.0,20.9,29.83,NNW,342,0.0,0.0,84,0.00,,---,0.00,0.00,VWS V14.01,2013-01-22 03:14:00,
2013-01-21 22:17:00,25.0,20.9,29.83,NNW,342,0.0,0.0,84,0.00,,---,0.00,0.00,VWS V14.01,2013-01-22 03:17:00,
2013-01-21 22:19:00,25.0,20.9,29.83,NNW,342,0.0,0.0,84,0.00,,---,0.00,0.00,VWS V14.01,2013-01-22 03:19:00,
2013-01-21 22:23:00,24.9,20.8,29.83,NNW,342,0.0,0.0,84,0.00,,---,0.00,0.00,VWS V14.01,2013-01-22 03:23:00,
2013-01-21 22:24:00,24.9,20.8,29.83,NNW,342,0.0,0.0,84,0.00,,---,0.00,0.00,VWS V14.01,2013-01-22 03:24:00,
2013-01-21 22:28:00,24.9,20.8,29.83,NNW,342,0.0,0.0,84,0.00,,---,0.00,0.00,VWS V14.01,2013-01-22 03:28:00,
2013-01-21 22:29:00,24.9,20.8,29.83,NNW,342,0.0,0.0,84,0.00,,---,0.00,0.00,VWS V14.01,2013-01-22 03:29:00,
2013-01-21 22:33:00,24.9,20.8,29.84,NNW,342,0.0,0.0,84,0.00,,---,0.00,0.00,VWS V14.01,2013-01-22 03:33:00,
2013-01-21 22:34:00,24.9,20.8,29.84,NNW,342,0.0,0.0,84,0.00,,---,0.00,0.00,VWS V14.01,2013-01-22 03:34:00,
2013-01-21 22:38:00,24.8,20.7,29.83,NNW,342,0.0,0.0,84,0.00,,---,0.00,0.00,VWS V14.01,2013-01-22 03:38:00,
2013-01-21 22:39:00,24.8,20.7,29.83,NNW,342,0.0,0.0,84,0.00,,---,0.00,0.00,VWS V14.01,2013-01-22 03:39:00,
2013-01-21 22:44:00,24.8,20.4,29.83,NNW,342,0.0,0.0,83,0.00,,---,0.00,0.00,VWS V14.01,2013-01-22 03:44:00,
2013-01-21 22:45:00,24.8,20.7,29.82,NNW,342,0.0,0.0,84,0.00,,---,0.00,0.00,VWS V14.01,2013-01-22 03:45:00,
2013-01-21 22:49:00,24.8,20.4,29.82,NNW,342,0.0,0.0,83,0.00,,---,0.00,0.00,VWS V14.01,2013-01-22 03:49:00,
2013-01-21 22:50:00,24.8,20.4,29.82,NNW,342,0.0,0.0,83,0.00,,---,0.00,0.00,VWS V14.01,2013-01-22 03:50:00,
2013-01-21 22:54:00,24.7,20.6,29.82,NNW,342,0.0,0.0,84,0.00,,---,0.00,0.00,VWS V14.01,2013-01-22 03:54:00,
2013-01-21 22:55:00,24.7,20.6,29.82,NNW,342,0.0,0.0,84,0.00,,---,0.00,0.00,VWS V14.01,2013-01-22 03:55:00,
2013-01-21 22:59:00,24.7,20.3,29.82,NNW,342,0.0,0.0,83,0.00,,---,0.00,0.00,VWS V14.01,2013-01-22 03:59:00,
2013-01-21 23:00:00,24.7,20.6,29.82,NNW,342,0.0,0.0,84,0.00,,---,0.00,0.00,VWS V14.01,2013-01-22 04:00:00,
2013-01-21 23:04:00,24.7,20.3,29.82,NNW,342,0.0,0.0,83,0.00,,---,0.00,0.00,VWS V14.01,2013-01-22 04:04:00,
2013-01-21 23:05:00,24.7,20.3,29.82,NNW,342,0.0,0.0,83,0.00,,---,0.00,0.00,VWS V14.01,2013-01-22 04:05:00,
2013-01-21 23:09:00,24.7,20.3,29.82,NNW,342,0.0,0.0,83,0.00,,---,0.00,0.00,VWS V14.01,2013-01-22 04:09:00,
2013-01-21 23:10:00,24.6,20.2,29.82,NNW,342,0.0,0.0,83,0.00,,---,0.00,0.00,VWS V14.01,2013-01-22 04:10:00,
2013-01-21 23:14:00,24.6,20.2,29.81,NNW,342,0.0,0.0,83,0.00,,---,0.00,0.00,VWS V14.01,2013-01-22 04:14:00,
2013-01-21 23:15:00,24.6,20.2,29.81,NNW,342,0.0,0.0,83,0.00,,---,0.00,0.00,VWS V14.01,2013-01-22 04:15:00,
2013-01-21 23:16:00,24.6,20.2,29.81,NNW,342,0.0,0.0,83,0.00,,---,0.00,0.00,VWS V14.01,2013-01-22 04:16:00,
2013-01-21 23:20:00,24.5,20.1,29.81,NNW,342,0.0,0.0,83,0.00,,---,0.00,0.00,VWS V14.01,2013-01-22 04:20:00,
2013-01-21 23:21:00,24.5,20.1,29.81,NNW,342,0.0,0.0,83,0.00,,---,0.00,0.00,VWS V14.01,2013-01-22 04:21:00,
2013-01-21 23:25:00,24.4,20.0,29.81,NNW,342,0.0,0.0,83,0.00,,---,0.00,0.00,VWS V14.01,2013-01-22 04:25:00,
2013-01-21 23:26:00,24.4,20.0,29.81,NNW,342,0.0,0.0,83,0.00,,---,0.00,0.00,VWS V14.01,2013-01-22 04:26:00,
2013-01-21 23:30:00,24.3,19.9,29.81,NNW,342,0.0,0.0,83,0.00,,---,0.00,0.00,VWS V14.01,2013-01-22 04:30:00,
2013-01-21 23:31:00,24.2,19.8,29.81,NNW,342,0.0,0.0,83,0.00,,---,0.00,0.00,VWS V14.01,2013-01-22 04:31:00,
2013-01-21 23:35:00,24.1,20.0,29.81,NNW,342,0.0,0.0,84,0.00,,---,0.00,0.00,VWS V14.01,2013-01-22 04:35:00,
2013-01-21 23:36:00,24.1,19.7,29.81,NNW,342,0.0,0.0,83,0.00,,---,0.00,0.00,VWS V14.01,2013-01-22 04:36:00,
2013-01-21 23:40:00,24.0,19.6,29.81,NNW,342,0.0,0.0,83,0.00,,---,0.00,0.00,VWS V14.01,2013-01-22 04:40:00,
2013-01-21 23:41:00,23.9,19.8,29.81,NNW,342,0.0,0.0,84,0.00,,---,0.00,0.00,VWS V14.01,2013-01-22 04:41:00,
2013-01-21 23:45:00,23.8,19.7,29.81,NNW,342,0.0,0.0,84,0.00,,---,0.00,0.00,VWS V14.01,2013-01-22 04:45:00,
2013-01-21 23:46:00,23.8,19.7,29.81,NNW,342,0.0,0.0,84,0.00,,---,0.00,0.00,VWS V14.01,2013-01-22 04:46:00,
2013-01-21 23:50:00,23.6,19.5,29.81,NNW,342,0.0,0.0,84,0.00,,---,0.00,0.00,VWS V14.01,2013-01-22 04:50:00,
2013-01-21 23:51:00,23.6,19.5,29.81,NNW,342,0.0,0.0,84,0.00,,---,0.00,0.00,VWS V14.01,2013-01-22 04:51:00,
2013-01-21 23:55:00,23.5,19.4,29.81,NNW,342,0.0,0.0,84,0.00,,---,0.00,0.00,VWS V14.01,2013-01-22 04:55:00,
2013-01-21 23:56:00,23.5,19.4,29.81,NNW,342,0.0,0.0,84,0.00,,---,0.00,0.00,VWS V14.01,2013-01-22 04:56:00,